<?xml version="1.0" encoding="UTF-8" standalone="no" ?>
<gpx xmlns="http://www.topografix.com/GPX/1/1" xmlns:xsi="http://www.w3.org/2001/XMLSchema-instance" xsi:schemaLocation="http://www.topografix.com/GPX/1/1 http://www.topografix.com/GPX/1/1/gpx.xsd" version="1.1" creator="VisuGPX - https://www.visugpx.com">
  <metadata>
    <name>Madonne de Marcy 1</name>
  </metadata>
  <trk>
    <name><![CDATA[Lucenay Course à pied]]></name>
    <trkseg>
      <trkpt lat="45.91623" lon="4.70846">
        <ele>187.81</ele>
        <time>2025-09-15T12:29:46.000Z</time>
      </trkpt>
      <trkpt lat="45.91626" lon="4.70847">
        <ele>187.85</ele>
        <time>2025-09-15T12:29:46.002Z</time>
      </trkpt>
      <trkpt lat="45.91631" lon="4.70849">
        <ele>187.91</ele>
        <time>2025-09-15T12:29:46.007Z</time>
      </trkpt>
      <trkpt lat="45.9164" lon="4.70854">
        <ele>187.96</ele>
        <time>2025-09-15T12:29:46.018Z</time>
      </trkpt>
      <trkpt lat="45.91641" lon="4.70856">
        <ele>188</ele>
        <time>2025-09-15T12:29:46.030Z</time>
      </trkpt>
      <trkpt lat="45.91648" lon="4.70865">
        <ele>188.03</ele>
        <time>2025-09-15T12:29:46.048Z</time>
      </trkpt>
      <trkpt lat="45.91649" lon="4.70864">
        <ele>188.06</ele>
        <time>2025-09-15T12:29:46.066Z</time>
      </trkpt>
      <trkpt lat="45.91654" lon="4.70856">
        <ele>188.11</ele>
        <time>2025-09-15T12:29:46.089Z</time>
      </trkpt>
      <trkpt lat="45.91655" lon="4.70856">
        <ele>188.16</ele>
        <time>2025-09-15T12:29:46.113Z</time>
      </trkpt>
      <trkpt lat="45.91656" lon="4.70858">
        <ele>188.21</ele>
        <time>2025-09-15T12:29:46.138Z</time>
      </trkpt>
      <trkpt lat="45.91657" lon="4.7086">
        <ele>188.25</ele>
        <time>2025-09-15T12:29:46.164Z</time>
      </trkpt>
      <trkpt lat="45.91656" lon="4.70872">
        <ele>188.29</ele>
        <time>2025-09-15T12:29:46.195Z</time>
      </trkpt>
      <trkpt lat="45.91658" lon="4.70886">
        <ele>188.34</ele>
        <time>2025-09-15T12:29:46.232Z</time>
      </trkpt>
      <trkpt lat="45.9166" lon="4.70886">
        <ele>188.39</ele>
        <time>2025-09-15T12:29:46.271Z</time>
      </trkpt>
      <trkpt lat="45.91662" lon="4.70881">
        <ele>188.43</ele>
        <time>2025-09-15T12:29:46.312Z</time>
      </trkpt>
      <trkpt lat="45.91661" lon="4.70862">
        <ele>188.47</ele>
        <time>2025-09-15T12:29:46.361Z</time>
      </trkpt>
      <trkpt lat="45.91663" lon="4.70856">
        <ele>188.52</ele>
        <time>2025-09-15T12:29:46.413Z</time>
      </trkpt>
      <trkpt lat="45.91666" lon="4.70857">
        <ele>188.57</ele>
        <time>2025-09-15T12:29:46.466Z</time>
      </trkpt>
      <trkpt lat="45.91675" lon="4.70867">
        <ele>188.64</ele>
        <time>2025-09-15T12:29:46.526Z</time>
      </trkpt>
      <trkpt lat="45.91676" lon="4.70872">
        <ele>188.69</ele>
        <time>2025-09-15T12:29:46.589Z</time>
      </trkpt>
      <trkpt lat="45.91674" lon="4.70881">
        <ele>188.72</ele>
        <time>2025-09-15T12:29:46.656Z</time>
      </trkpt>
      <trkpt lat="45.91671" lon="4.70896">
        <ele>188.74</ele>
        <time>2025-09-15T12:29:46.729Z</time>
      </trkpt>
      <trkpt lat="45.9167" lon="4.70901">
        <ele>188.75</ele>
        <time>2025-09-15T12:29:46.805Z</time>
      </trkpt>
      <trkpt lat="45.91669" lon="4.70904">
        <ele>188.77</ele>
        <time>2025-09-15T12:29:46.882Z</time>
      </trkpt>
      <trkpt lat="45.91664" lon="4.70924">
        <ele>188.77</ele>
        <time>2025-09-15T12:29:46.968Z</time>
      </trkpt>
      <trkpt lat="45.91662" lon="4.70929">
        <ele>188.77</ele>
        <time>2025-09-15T12:29:47.057Z</time>
      </trkpt>
      <trkpt lat="45.91661" lon="4.70932">
        <ele>188.78</ele>
        <time>2025-09-15T12:29:47.147Z</time>
      </trkpt>
      <trkpt lat="45.91662" lon="4.70935">
        <ele>188.8</ele>
        <time>2025-09-15T12:29:47.238Z</time>
      </trkpt>
      <trkpt lat="45.91664" lon="4.70934">
        <ele>188.82</ele>
        <time>2025-09-15T12:29:47.330Z</time>
      </trkpt>
      <trkpt lat="45.91668" lon="4.70919">
        <ele>188.86</ele>
        <time>2025-09-15T12:29:47.429Z</time>
      </trkpt>
      <trkpt lat="45.91673" lon="4.70896">
        <ele>188.89</ele>
        <time>2025-09-15T12:29:47.538Z</time>
      </trkpt>
      <trkpt lat="45.91676" lon="4.70882">
        <ele>188.92</ele>
        <time>2025-09-15T12:29:47.653Z</time>
      </trkpt>
      <trkpt lat="45.91676" lon="4.70877">
        <ele>188.94</ele>
        <time>2025-09-15T12:29:47.771Z</time>
      </trkpt>
      <trkpt lat="45.91677" lon="4.70871">
        <ele>188.95</ele>
        <time>2025-09-15T12:29:47.891Z</time>
      </trkpt>
      <trkpt lat="45.91678" lon="4.70872">
        <ele>188.96</ele>
        <time>2025-09-15T12:29:48.012Z</time>
      </trkpt>
      <trkpt lat="45.91676" lon="4.7088">
        <ele>188.95</ele>
        <time>2025-09-15T12:29:48.136Z</time>
      </trkpt>
      <trkpt lat="45.91679" lon="4.70901">
        <ele>188.94</ele>
        <time>2025-09-15T12:29:48.269Z</time>
      </trkpt>
      <trkpt lat="45.9168" lon="4.70907">
        <ele>188.93</ele>
        <time>2025-09-15T12:29:48.405Z</time>
      </trkpt>
      <trkpt lat="45.91681" lon="4.70924">
        <ele>188.9</ele>
        <time>2025-09-15T12:29:48.549Z</time>
      </trkpt>
      <trkpt lat="45.91681" lon="4.7094">
        <ele>188.86</ele>
        <time>2025-09-15T12:29:48.699Z</time>
      </trkpt>
      <trkpt lat="45.91672" lon="4.70946">
        <ele>188.78</ele>
        <time>2025-09-15T12:29:48.856Z</time>
      </trkpt>
      <trkpt lat="45.91657" lon="4.70945">
        <ele>188.67</ele>
        <time>2025-09-15T12:29:49.022Z</time>
      </trkpt>
      <trkpt lat="45.91646" lon="4.70949">
        <ele>188.55</ele>
        <time>2025-09-15T12:29:49.195Z</time>
      </trkpt>
      <trkpt lat="45.91646" lon="4.70952">
        <ele>188.46</ele>
        <time>2025-09-15T12:29:49.369Z</time>
      </trkpt>
      <trkpt lat="45.91652" lon="4.70958">
        <ele>188.4</ele>
        <time>2025-09-15T12:29:49.548Z</time>
      </trkpt>
      <trkpt lat="45.91672" lon="4.70965">
        <ele>188.38</ele>
        <time>2025-09-15T12:29:49.739Z</time>
      </trkpt>
      <trkpt lat="45.91679" lon="4.70977">
        <ele>188.32</ele>
        <time>2025-09-15T12:29:49.937Z</time>
      </trkpt>
      <trkpt lat="45.91679" lon="4.70991">
        <ele>188.2</ele>
        <time>2025-09-15T12:29:50.141Z</time>
      </trkpt>
      <trkpt lat="45.91676" lon="4.71011">
        <ele>188.03</ele>
        <time>2025-09-15T12:29:50.354Z</time>
      </trkpt>
      <trkpt lat="45.91667" lon="4.71015">
        <ele>187.89</ele>
        <time>2025-09-15T12:29:50.572Z</time>
      </trkpt>
      <trkpt lat="45.91664" lon="4.71012">
        <ele>187.78</ele>
        <time>2025-09-15T12:29:50.792Z</time>
      </trkpt>
      <trkpt lat="45.91663" lon="4.71008">
        <ele>187.67</ele>
        <time>2025-09-15T12:29:51.014Z</time>
      </trkpt>
      <trkpt lat="45.91659" lon="4.70996">
        <ele>187.55</ele>
        <time>2025-09-15T12:29:51.242Z</time>
      </trkpt>
      <trkpt lat="45.91659" lon="4.70993">
        <ele>187.44</ele>
        <time>2025-09-15T12:29:51.471Z</time>
      </trkpt>
      <trkpt lat="45.91655" lon="4.70979">
        <ele>187.32</ele>
        <time>2025-09-15T12:29:51.706Z</time>
      </trkpt>
      <trkpt lat="45.91653" lon="4.70974">
        <ele>187.19</ele>
        <time>2025-09-15T12:29:51.944Z</time>
      </trkpt>
      <trkpt lat="45.91651" lon="4.70971">
        <ele>187.06</ele>
        <time>2025-09-15T12:29:52.183Z</time>
      </trkpt>
      <trkpt lat="45.91649" lon="4.70972">
        <ele>186.92</ele>
        <time>2025-09-15T12:29:52.424Z</time>
      </trkpt>
      <trkpt lat="45.91648" lon="4.70976">
        <ele>186.76</ele>
        <time>2025-09-15T12:29:52.667Z</time>
      </trkpt>
      <trkpt lat="45.91645" lon="4.70992">
        <ele>186.61</ele>
        <time>2025-09-15T12:29:52.916Z</time>
      </trkpt>
      <trkpt lat="45.91645" lon="4.70994">
        <ele>186.46</ele>
        <time>2025-09-15T12:29:53.167Z</time>
      </trkpt>
      <trkpt lat="45.91643" lon="4.71007">
        <ele>186.26</ele>
        <time>2025-09-15T12:29:53.423Z</time>
      </trkpt>
      <trkpt lat="45.91641" lon="4.71015">
        <ele>186.07</ele>
        <time>2025-09-15T12:29:53.683Z</time>
      </trkpt>
      <trkpt lat="45.9164" lon="4.7102">
        <ele>185.89</ele>
        <time>2025-09-15T12:29:53.945Z</time>
      </trkpt>
      <trkpt lat="45.91639" lon="4.71018">
        <ele>185.74</ele>
        <time>2025-09-15T12:29:54.208Z</time>
      </trkpt>
      <trkpt lat="45.91638" lon="4.70997">
        <ele>185.65</ele>
        <time>2025-09-15T12:29:54.480Z</time>
      </trkpt>
      <trkpt lat="45.91641" lon="4.70976">
        <ele>185.54</ele>
        <time>2025-09-15T12:29:54.762Z</time>
      </trkpt>
      <trkpt lat="45.91639" lon="4.70966">
        <ele>185.39</ele>
        <time>2025-09-15T12:29:55.048Z</time>
      </trkpt>
      <trkpt lat="45.91638" lon="4.70966">
        <ele>185.23</ele>
        <time>2025-09-15T12:29:55.335Z</time>
      </trkpt>
      <trkpt lat="45.91633" lon="4.70977">
        <ele>185.08</ele>
        <time>2025-09-15T12:29:55.628Z</time>
      </trkpt>
      <trkpt lat="45.91632" lon="4.70991">
        <ele>184.91</ele>
        <time>2025-09-15T12:29:55.927Z</time>
      </trkpt>
      <trkpt lat="45.91631" lon="4.70993">
        <ele>184.76</ele>
        <time>2025-09-15T12:29:56.227Z</time>
      </trkpt>
      <trkpt lat="45.91629" lon="4.71003">
        <ele>184.57</ele>
        <time>2025-09-15T12:29:56.531Z</time>
      </trkpt>
      <trkpt lat="45.91628" lon="4.71006">
        <ele>184.45</ele>
        <time>2025-09-15T12:29:56.836Z</time>
      </trkpt>
      <trkpt lat="45.91627" lon="4.71007">
        <ele>184.35</ele>
        <time>2025-09-15T12:29:57.142Z</time>
      </trkpt>
      <trkpt lat="45.91618" lon="4.71017">
        <ele>184.21</ele>
        <time>2025-09-15T12:29:57.455Z</time>
      </trkpt>
      <trkpt lat="45.91615" lon="4.71018">
        <ele>184.17</ele>
        <time>2025-09-15T12:29:57.770Z</time>
      </trkpt>
      <trkpt lat="45.91612" lon="4.71015">
        <ele>184.18</ele>
        <time>2025-09-15T12:29:58.088Z</time>
      </trkpt>
      <trkpt lat="45.9161" lon="4.71007">
        <ele>184.25</ele>
        <time>2025-09-15T12:29:58.409Z</time>
      </trkpt>
      <trkpt lat="45.9161" lon="4.71001">
        <ele>184.36</ele>
        <time>2025-09-15T12:29:58.733Z</time>
      </trkpt>
      <trkpt lat="45.91611" lon="4.70998">
        <ele>184.51</ele>
        <time>2025-09-15T12:29:59.058Z</time>
      </trkpt>
      <trkpt lat="45.91611" lon="4.70993">
        <ele>184.69</ele>
        <time>2025-09-15T12:29:59.385Z</time>
      </trkpt>
      <trkpt lat="45.91613" lon="4.70985">
        <ele>184.92</ele>
        <time>2025-09-15T12:29:59.716Z</time>
      </trkpt>
      <trkpt lat="45.91622" lon="4.70969">
        <ele>185.19</ele>
        <time>2025-09-15T12:30:00.056Z</time>
      </trkpt>
      <trkpt lat="45.91626" lon="4.70962">
        <ele>185.4</ele>
        <time>2025-09-15T12:30:00.400Z</time>
      </trkpt>
      <trkpt lat="45.91627" lon="4.70959">
        <ele>185.61</ele>
        <time>2025-09-15T12:30:00.745Z</time>
      </trkpt>
      <trkpt lat="45.91635" lon="4.70947">
        <ele>185.86</ele>
        <time>2025-09-15T12:30:01.097Z</time>
      </trkpt>
      <trkpt lat="45.91636" lon="4.7094">
        <ele>186.07</ele>
        <time>2025-09-15T12:30:01.452Z</time>
      </trkpt>
      <trkpt lat="45.91633" lon="4.70936">
        <ele>186.24</ele>
        <time>2025-09-15T12:30:01.809Z</time>
      </trkpt>
      <trkpt lat="45.91619" lon="4.70926">
        <ele>186.35</ele>
        <time>2025-09-15T12:30:02.176Z</time>
      </trkpt>
      <trkpt lat="45.91606" lon="4.7092">
        <ele>186.46</ele>
        <time>2025-09-15T12:30:02.551Z</time>
      </trkpt>
      <trkpt lat="45.91595" lon="4.70908">
        <ele>186.57</ele>
        <time>2025-09-15T12:30:02.935Z</time>
      </trkpt>
      <trkpt lat="45.91595" lon="4.70891">
        <ele>186.69</ele>
        <time>2025-09-15T12:30:03.326Z</time>
      </trkpt>
      <trkpt lat="45.91597" lon="4.70871">
        <ele>186.76</ele>
        <time>2025-09-15T12:30:03.725Z</time>
      </trkpt>
      <trkpt lat="45.91596" lon="4.70854">
        <ele>186.81</ele>
        <time>2025-09-15T12:30:04.132Z</time>
      </trkpt>
      <trkpt lat="45.91596" lon="4.70847">
        <ele>186.83</ele>
        <time>2025-09-15T12:30:04.542Z</time>
      </trkpt>
      <trkpt lat="45.91595" lon="4.70846">
        <ele>186.84</ele>
        <time>2025-09-15T12:30:04.952Z</time>
      </trkpt>
      <trkpt lat="45.91595" lon="4.70846">
        <ele>186.83</ele>
        <time>2025-09-15T12:30:05.362Z</time>
      </trkpt>
      <trkpt lat="45.91595" lon="4.70845">
        <ele>186.81</ele>
        <time>2025-09-15T12:30:05.773Z</time>
      </trkpt>
      <trkpt lat="45.91596" lon="4.70844">
        <ele>186.77</ele>
        <time>2025-09-15T12:30:06.184Z</time>
      </trkpt>
      <trkpt lat="45.91596" lon="4.70842">
        <ele>186.73</ele>
        <time>2025-09-15T12:30:06.596Z</time>
      </trkpt>
      <trkpt lat="45.91596" lon="4.70841">
        <ele>186.68</ele>
        <time>2025-09-15T12:30:07.008Z</time>
      </trkpt>
      <trkpt lat="45.91596" lon="4.70841">
        <ele>186.63</ele>
        <time>2025-09-15T12:30:07.420Z</time>
      </trkpt>
      <trkpt lat="45.91596" lon="4.70842">
        <ele>186.58</ele>
        <time>2025-09-15T12:30:07.833Z</time>
      </trkpt>
      <trkpt lat="45.91596" lon="4.70841">
        <ele>186.54</ele>
        <time>2025-09-15T12:30:08.246Z</time>
      </trkpt>
      <trkpt lat="45.91596" lon="4.70841">
        <ele>186.51</ele>
        <time>2025-09-15T12:30:08.659Z</time>
      </trkpt>
      <trkpt lat="45.91597" lon="4.70842">
        <ele>186.49</ele>
        <time>2025-09-15T12:30:09.072Z</time>
      </trkpt>
      <trkpt lat="45.91596" lon="4.70836">
        <ele>186.5</ele>
        <time>2025-09-15T12:30:09.488Z</time>
      </trkpt>
      <trkpt lat="45.91595" lon="4.70829">
        <ele>186.53</ele>
        <time>2025-09-15T12:30:09.907Z</time>
      </trkpt>
      <trkpt lat="45.91591" lon="4.70811">
        <ele>186.59</ele>
        <time>2025-09-15T12:30:10.334Z</time>
      </trkpt>
      <trkpt lat="45.91588" lon="4.70806">
        <ele>186.69</ele>
        <time>2025-09-15T12:30:10.764Z</time>
      </trkpt>
      <trkpt lat="45.91585" lon="4.70797">
        <ele>186.85</ele>
        <time>2025-09-15T12:30:11.198Z</time>
      </trkpt>
      <trkpt lat="45.91581" lon="4.70787">
        <ele>187.06</ele>
        <time>2025-09-15T12:30:11.637Z</time>
      </trkpt>
      <trkpt lat="45.91577" lon="4.70778">
        <ele>187.29</ele>
        <time>2025-09-15T12:30:12.080Z</time>
      </trkpt>
      <trkpt lat="45.9157" lon="4.70771">
        <ele>187.54</ele>
        <time>2025-09-15T12:30:12.529Z</time>
      </trkpt>
      <trkpt lat="45.91567" lon="4.70769">
        <ele>187.82</ele>
        <time>2025-09-15T12:30:12.980Z</time>
      </trkpt>
      <trkpt lat="45.91562" lon="4.70764">
        <ele>188.18</ele>
        <time>2025-09-15T12:30:13.435Z</time>
      </trkpt>
      <trkpt lat="45.91561" lon="4.70762">
        <ele>188.57</ele>
        <time>2025-09-15T12:30:13.891Z</time>
      </trkpt>
      <trkpt lat="45.91559" lon="4.70734">
        <ele>189.09</ele>
        <time>2025-09-15T12:30:14.359Z</time>
      </trkpt>
      <trkpt lat="45.9156" lon="4.70721">
        <ele>189.61</ele>
        <time>2025-09-15T12:30:14.832Z</time>
      </trkpt>
      <trkpt lat="45.91559" lon="4.70709">
        <ele>190.19</ele>
        <time>2025-09-15T12:30:15.310Z</time>
      </trkpt>
      <trkpt lat="45.91562" lon="4.70689">
        <ele>190.85</ele>
        <time>2025-09-15T12:30:15.797Z</time>
      </trkpt>
      <trkpt lat="45.91562" lon="4.70686">
        <ele>191.5</ele>
        <time>2025-09-15T12:30:16.285Z</time>
      </trkpt>
      <trkpt lat="45.91562" lon="4.70683">
        <ele>192.19</ele>
        <time>2025-09-15T12:30:16.775Z</time>
      </trkpt>
      <trkpt lat="45.91565" lon="4.70666">
        <ele>192.96</ele>
        <time>2025-09-15T12:30:17.272Z</time>
      </trkpt>
      <trkpt lat="45.91568" lon="4.70644">
        <ele>193.77</ele>
        <time>2025-09-15T12:30:17.779Z</time>
      </trkpt>
      <trkpt lat="45.91569" lon="4.70622">
        <ele>194.63</ele>
        <time>2025-09-15T12:30:18.295Z</time>
      </trkpt>
      <trkpt lat="45.91569" lon="4.70606">
        <ele>195.53</ele>
        <time>2025-09-15T12:30:18.818Z</time>
      </trkpt>
      <trkpt lat="45.91567" lon="4.70588">
        <ele>196.47</ele>
        <time>2025-09-15T12:30:19.349Z</time>
      </trkpt>
      <trkpt lat="45.91567" lon="4.70563">
        <ele>197.52</ele>
        <time>2025-09-15T12:30:19.890Z</time>
      </trkpt>
      <trkpt lat="45.91565" lon="4.7055">
        <ele>198.45</ele>
        <time>2025-09-15T12:30:20.437Z</time>
      </trkpt>
      <trkpt lat="45.91563" lon="4.70539">
        <ele>199.34</ele>
        <time>2025-09-15T12:30:20.989Z</time>
      </trkpt>
      <trkpt lat="45.91564" lon="4.70517">
        <ele>200.23</ele>
        <time>2025-09-15T12:30:21.550Z</time>
      </trkpt>
      <trkpt lat="45.91565" lon="4.70497">
        <ele>201.08</ele>
        <time>2025-09-15T12:30:22.120Z</time>
      </trkpt>
      <trkpt lat="45.91565" lon="4.70494">
        <ele>201.84</ele>
        <time>2025-09-15T12:30:22.691Z</time>
      </trkpt>
      <trkpt lat="45.91566" lon="4.70467">
        <ele>202.64</ele>
        <time>2025-09-15T12:30:23.274Z</time>
      </trkpt>
      <trkpt lat="45.91566" lon="4.70465">
        <ele>203.34</ele>
        <time>2025-09-15T12:30:23.858Z</time>
      </trkpt>
      <trkpt lat="45.91567" lon="4.70457">
        <ele>204.02</ele>
        <time>2025-09-15T12:30:24.445Z</time>
      </trkpt>
      <trkpt lat="45.91568" lon="4.70455">
        <ele>204.65</ele>
        <time>2025-09-15T12:30:25.033Z</time>
      </trkpt>
      <trkpt lat="45.91568" lon="4.70448">
        <ele>205.25</ele>
        <time>2025-09-15T12:30:25.624Z</time>
      </trkpt>
      <trkpt lat="45.91569" lon="4.70442">
        <ele>205.83</ele>
        <time>2025-09-15T12:30:26.217Z</time>
      </trkpt>
      <trkpt lat="45.9157" lon="4.70422">
        <ele>206.41</ele>
        <time>2025-09-15T12:30:26.819Z</time>
      </trkpt>
      <trkpt lat="45.9157" lon="4.7041">
        <ele>206.97</ele>
        <time>2025-09-15T12:30:27.426Z</time>
      </trkpt>
      <trkpt lat="45.91571" lon="4.70405">
        <ele>207.46</ele>
        <time>2025-09-15T12:30:28.036Z</time>
      </trkpt>
      <trkpt lat="45.91571" lon="4.70402">
        <ele>207.91</ele>
        <time>2025-09-15T12:30:28.647Z</time>
      </trkpt>
      <trkpt lat="45.91572" lon="4.70375">
        <ele>208.44</ele>
        <time>2025-09-15T12:30:29.269Z</time>
      </trkpt>
      <trkpt lat="45.91572" lon="4.7037">
        <ele>208.83</ele>
        <time>2025-09-15T12:30:29.894Z</time>
      </trkpt>
      <trkpt lat="45.91573" lon="4.70364">
        <ele>209.18</ele>
        <time>2025-09-15T12:30:30.521Z</time>
      </trkpt>
      <trkpt lat="45.91574" lon="4.70353">
        <ele>209.51</ele>
        <time>2025-09-15T12:30:31.153Z</time>
      </trkpt>
      <trkpt lat="45.91572" lon="4.70344">
        <ele>209.81</ele>
        <time>2025-09-15T12:30:31.789Z</time>
      </trkpt>
      <trkpt lat="45.91569" lon="4.70334">
        <ele>210.11</ele>
        <time>2025-09-15T12:30:32.430Z</time>
      </trkpt>
      <trkpt lat="45.91563" lon="4.7033">
        <ele>210.35</ele>
        <time>2025-09-15T12:30:33.075Z</time>
      </trkpt>
      <trkpt lat="45.91545" lon="4.7032">
        <ele>210.61</ele>
        <time>2025-09-15T12:30:33.731Z</time>
      </trkpt>
      <trkpt lat="45.91531" lon="4.70317">
        <ele>210.81</ele>
        <time>2025-09-15T12:30:34.396Z</time>
      </trkpt>
      <trkpt lat="45.91529" lon="4.70316">
        <ele>210.97</ele>
        <time>2025-09-15T12:30:35.062Z</time>
      </trkpt>
      <trkpt lat="45.91517" lon="4.70316">
        <ele>211.13</ele>
        <time>2025-09-15T12:30:35.736Z</time>
      </trkpt>
      <trkpt lat="45.91498" lon="4.70313">
        <ele>211.25</ele>
        <time>2025-09-15T12:30:36.421Z</time>
      </trkpt>
      <trkpt lat="45.91481" lon="4.7031">
        <ele>211.36</ele>
        <time>2025-09-15T12:30:37.117Z</time>
      </trkpt>
      <trkpt lat="45.91467" lon="4.70306">
        <ele>211.47</ele>
        <time>2025-09-15T12:30:37.821Z</time>
      </trkpt>
      <trkpt lat="45.91448" lon="4.70298">
        <ele>211.62</ele>
        <time>2025-09-15T12:30:38.537Z</time>
      </trkpt>
      <trkpt lat="45.91447" lon="4.70296">
        <ele>211.85</ele>
        <time>2025-09-15T12:30:39.255Z</time>
      </trkpt>
      <trkpt lat="45.91431" lon="4.7028">
        <ele>212.14</ele>
        <time>2025-09-15T12:30:39.985Z</time>
      </trkpt>
      <trkpt lat="45.91421" lon="4.70271">
        <ele>212.49</ele>
        <time>2025-09-15T12:30:40.722Z</time>
      </trkpt>
      <trkpt lat="45.91414" lon="4.70258">
        <ele>212.87</ele>
        <time>2025-09-15T12:30:41.466Z</time>
      </trkpt>
      <trkpt lat="45.91401" lon="4.7025">
        <ele>213.31</ele>
        <time>2025-09-15T12:30:42.218Z</time>
      </trkpt>
      <trkpt lat="45.91385" lon="4.70249">
        <ele>213.72</ele>
        <time>2025-09-15T12:30:42.980Z</time>
      </trkpt>
      <trkpt lat="45.9138" lon="4.70248">
        <ele>214.12</ele>
        <time>2025-09-15T12:30:43.745Z</time>
      </trkpt>
      <trkpt lat="45.91375" lon="4.70242">
        <ele>214.55</ele>
        <time>2025-09-15T12:30:44.514Z</time>
      </trkpt>
      <trkpt lat="45.91374" lon="4.7023">
        <ele>215.01</ele>
        <time>2025-09-15T12:30:45.288Z</time>
      </trkpt>
      <trkpt lat="45.91373" lon="4.70227">
        <ele>215.42</ele>
        <time>2025-09-15T12:30:46.064Z</time>
      </trkpt>
      <trkpt lat="45.91374" lon="4.70223">
        <ele>215.83</ele>
        <time>2025-09-15T12:30:46.841Z</time>
      </trkpt>
      <trkpt lat="45.91375" lon="4.70217">
        <ele>216.25</ele>
        <time>2025-09-15T12:30:47.621Z</time>
      </trkpt>
      <trkpt lat="45.91375" lon="4.70215">
        <ele>216.64</ele>
        <time>2025-09-15T12:30:48.402Z</time>
      </trkpt>
      <trkpt lat="45.91374" lon="4.70212">
        <ele>217.02</ele>
        <time>2025-09-15T12:30:49.184Z</time>
      </trkpt>
      <trkpt lat="45.91373" lon="4.70205">
        <ele>217.42</ele>
        <time>2025-09-15T12:30:49.969Z</time>
      </trkpt>
      <trkpt lat="45.91371" lon="4.70201">
        <ele>217.77</ele>
        <time>2025-09-15T12:30:50.756Z</time>
      </trkpt>
      <trkpt lat="45.91362" lon="4.70197">
        <ele>218.1</ele>
        <time>2025-09-15T12:30:51.549Z</time>
      </trkpt>
      <trkpt lat="45.91351" lon="4.70194">
        <ele>218.41</ele>
        <time>2025-09-15T12:30:52.349Z</time>
      </trkpt>
      <trkpt lat="45.91346" lon="4.70191">
        <ele>218.71</ele>
        <time>2025-09-15T12:30:53.152Z</time>
      </trkpt>
      <trkpt lat="45.91345" lon="4.7019">
        <ele>218.97</ele>
        <time>2025-09-15T12:30:53.956Z</time>
      </trkpt>
      <trkpt lat="45.91347" lon="4.70187">
        <ele>219.23</ele>
        <time>2025-09-15T12:30:54.762Z</time>
      </trkpt>
      <trkpt lat="45.91346" lon="4.70183">
        <ele>219.47</ele>
        <time>2025-09-15T12:30:55.569Z</time>
      </trkpt>
      <trkpt lat="45.91344" lon="4.70175">
        <ele>219.7</ele>
        <time>2025-09-15T12:30:56.380Z</time>
      </trkpt>
      <trkpt lat="45.91341" lon="4.7016">
        <ele>219.96</ele>
        <time>2025-09-15T12:30:57.197Z</time>
      </trkpt>
      <trkpt lat="45.91342" lon="4.70158">
        <ele>220.14</ele>
        <time>2025-09-15T12:30:58.016Z</time>
      </trkpt>
      <trkpt lat="45.91343" lon="4.70156">
        <ele>220.3</ele>
        <time>2025-09-15T12:30:58.836Z</time>
      </trkpt>
      <trkpt lat="45.91343" lon="4.70153">
        <ele>220.45</ele>
        <time>2025-09-15T12:30:59.657Z</time>
      </trkpt>
      <trkpt lat="45.91343" lon="4.70151">
        <ele>220.56</ele>
        <time>2025-09-15T12:31:00.479Z</time>
      </trkpt>
      <trkpt lat="45.91341" lon="4.70149">
        <ele>220.66</ele>
        <time>2025-09-15T12:31:01.302Z</time>
      </trkpt>
      <trkpt lat="45.91335" lon="4.70146">
        <ele>220.74</ele>
        <time>2025-09-15T12:31:02.129Z</time>
      </trkpt>
      <trkpt lat="45.91321" lon="4.70144">
        <ele>220.8</ele>
        <time>2025-09-15T12:31:02.965Z</time>
      </trkpt>
      <trkpt lat="45.91312" lon="4.70132">
        <ele>220.87</ele>
        <time>2025-09-15T12:31:03.808Z</time>
      </trkpt>
      <trkpt lat="45.91312" lon="4.70132">
        <ele>220.89</ele>
        <time>2025-09-15T12:31:04.651Z</time>
      </trkpt>
      <trkpt lat="45.91313" lon="4.70132">
        <ele>220.9</ele>
        <time>2025-09-15T12:31:05.495Z</time>
      </trkpt>
      <trkpt lat="45.91315" lon="4.70131">
        <ele>220.91</ele>
        <time>2025-09-15T12:31:06.340Z</time>
      </trkpt>
      <trkpt lat="45.91321" lon="4.70129">
        <ele>220.92</ele>
        <time>2025-09-15T12:31:07.189Z</time>
      </trkpt>
      <trkpt lat="45.91322" lon="4.70129">
        <ele>220.92</ele>
        <time>2025-09-15T12:31:08.039Z</time>
      </trkpt>
      <trkpt lat="45.91327" lon="4.70131">
        <ele>220.93</ele>
        <time>2025-09-15T12:31:08.892Z</time>
      </trkpt>
      <trkpt lat="45.91341" lon="4.70131">
        <ele>220.96</ele>
        <time>2025-09-15T12:31:09.753Z</time>
      </trkpt>
      <trkpt lat="45.91346" lon="4.70129">
        <ele>221.01</ele>
        <time>2025-09-15T12:31:10.618Z</time>
      </trkpt>
      <trkpt lat="45.91352" lon="4.70129">
        <ele>221.08</ele>
        <time>2025-09-15T12:31:11.486Z</time>
      </trkpt>
      <trkpt lat="45.91356" lon="4.70129">
        <ele>221.17</ele>
        <time>2025-09-15T12:31:12.357Z</time>
      </trkpt>
      <trkpt lat="45.91358" lon="4.70131">
        <ele>221.31</ele>
        <time>2025-09-15T12:31:13.229Z</time>
      </trkpt>
      <trkpt lat="45.91367" lon="4.70131">
        <ele>221.48</ele>
        <time>2025-09-15T12:31:14.107Z</time>
      </trkpt>
      <trkpt lat="45.91368" lon="4.7013">
        <ele>221.7</ele>
        <time>2025-09-15T12:31:14.986Z</time>
      </trkpt>
      <trkpt lat="45.91376" lon="4.70127">
        <ele>221.95</ele>
        <time>2025-09-15T12:31:15.869Z</time>
      </trkpt>
      <trkpt lat="45.91385" lon="4.70122">
        <ele>222.27</ele>
        <time>2025-09-15T12:31:16.759Z</time>
      </trkpt>
      <trkpt lat="45.91394" lon="4.70118">
        <ele>222.66</ele>
        <time>2025-09-15T12:31:17.654Z</time>
      </trkpt>
      <trkpt lat="45.91406" lon="4.70107">
        <ele>223.18</ele>
        <time>2025-09-15T12:31:18.558Z</time>
      </trkpt>
      <trkpt lat="45.91408" lon="4.70106">
        <ele>223.65</ele>
        <time>2025-09-15T12:31:19.463Z</time>
      </trkpt>
      <trkpt lat="45.91416" lon="4.70097">
        <ele>224.25</ele>
        <time>2025-09-15T12:31:20.374Z</time>
      </trkpt>
      <trkpt lat="45.91419" lon="4.70091">
        <ele>224.84</ele>
        <time>2025-09-15T12:31:21.288Z</time>
      </trkpt>
      <trkpt lat="45.9142" lon="4.70087">
        <ele>225.44</ele>
        <time>2025-09-15T12:31:22.204Z</time>
      </trkpt>
      <trkpt lat="45.91422" lon="4.70077">
        <ele>226.09</ele>
        <time>2025-09-15T12:31:23.125Z</time>
      </trkpt>
      <trkpt lat="45.91421" lon="4.70069">
        <ele>226.75</ele>
        <time>2025-09-15T12:31:24.049Z</time>
      </trkpt>
      <trkpt lat="45.91421" lon="4.70066">
        <ele>227.39</ele>
        <time>2025-09-15T12:31:24.974Z</time>
      </trkpt>
      <trkpt lat="45.9142" lon="4.70055">
        <ele>228.11</ele>
        <time>2025-09-15T12:31:25.904Z</time>
      </trkpt>
      <trkpt lat="45.91422" lon="4.70037">
        <ele>228.81</ele>
        <time>2025-09-15T12:31:26.842Z</time>
      </trkpt>
      <trkpt lat="45.91422" lon="4.70033">
        <ele>229.47</ele>
        <time>2025-09-15T12:31:27.782Z</time>
      </trkpt>
      <trkpt lat="45.91422" lon="4.70026">
        <ele>230.17</ele>
        <time>2025-09-15T12:31:28.725Z</time>
      </trkpt>
      <trkpt lat="45.91422" lon="4.70021">
        <ele>230.85</ele>
        <time>2025-09-15T12:31:29.670Z</time>
      </trkpt>
      <trkpt lat="45.91422" lon="4.7002">
        <ele>231.54</ele>
        <time>2025-09-15T12:31:30.615Z</time>
      </trkpt>
      <trkpt lat="45.91421" lon="4.70005">
        <ele>232.28</ele>
        <time>2025-09-15T12:31:31.567Z</time>
      </trkpt>
      <trkpt lat="45.91422" lon="4.70001">
        <ele>233.01</ele>
        <time>2025-09-15T12:31:32.520Z</time>
      </trkpt>
      <trkpt lat="45.91421" lon="4.69984">
        <ele>233.83</ele>
        <time>2025-09-15T12:31:33.481Z</time>
      </trkpt>
      <trkpt lat="45.91421" lon="4.69983">
        <ele>234.58</ele>
        <time>2025-09-15T12:31:34.442Z</time>
      </trkpt>
      <trkpt lat="45.91419" lon="4.69965">
        <ele>235.47</ele>
        <time>2025-09-15T12:31:35.411Z</time>
      </trkpt>
      <trkpt lat="45.91419" lon="4.69953">
        <ele>236.32</ele>
        <time>2025-09-15T12:31:36.385Z</time>
      </trkpt>
      <trkpt lat="45.91418" lon="4.69949">
        <ele>237.12</ele>
        <time>2025-09-15T12:31:37.361Z</time>
      </trkpt>
      <trkpt lat="45.91418" lon="4.69945">
        <ele>237.93</ele>
        <time>2025-09-15T12:31:38.338Z</time>
      </trkpt>
      <trkpt lat="45.91416" lon="4.69939">
        <ele>238.77</ele>
        <time>2025-09-15T12:31:39.318Z</time>
      </trkpt>
      <trkpt lat="45.91415" lon="4.69931">
        <ele>239.64</ele>
        <time>2025-09-15T12:31:40.302Z</time>
      </trkpt>
      <trkpt lat="45.91415" lon="4.69926">
        <ele>240.48</ele>
        <time>2025-09-15T12:31:41.288Z</time>
      </trkpt>
      <trkpt lat="45.91415" lon="4.69925">
        <ele>241.28</ele>
        <time>2025-09-15T12:31:42.274Z</time>
      </trkpt>
      <trkpt lat="45.91418" lon="4.69902">
        <ele>242.21</ele>
        <time>2025-09-15T12:31:43.270Z</time>
      </trkpt>
      <trkpt lat="45.9142" lon="4.69888">
        <ele>243.03</ele>
        <time>2025-09-15T12:31:44.272Z</time>
      </trkpt>
      <trkpt lat="45.91425" lon="4.69877">
        <ele>243.89</ele>
        <time>2025-09-15T12:31:45.280Z</time>
      </trkpt>
      <trkpt lat="45.91431" lon="4.69865">
        <ele>244.74</ele>
        <time>2025-09-15T12:31:46.294Z</time>
      </trkpt>
      <trkpt lat="45.91434" lon="4.69859">
        <ele>245.53</ele>
        <time>2025-09-15T12:31:47.312Z</time>
      </trkpt>
      <trkpt lat="45.91437" lon="4.69853">
        <ele>246.31</ele>
        <time>2025-09-15T12:31:48.333Z</time>
      </trkpt>
      <trkpt lat="45.91438" lon="4.69848">
        <ele>247.07</ele>
        <time>2025-09-15T12:31:49.356Z</time>
      </trkpt>
      <trkpt lat="45.91443" lon="4.69839">
        <ele>247.87</ele>
        <time>2025-09-15T12:31:50.384Z</time>
      </trkpt>
      <trkpt lat="45.91451" lon="4.69828">
        <ele>248.69</ele>
        <time>2025-09-15T12:31:51.418Z</time>
      </trkpt>
      <trkpt lat="45.91452" lon="4.69824">
        <ele>249.44</ele>
        <time>2025-09-15T12:31:52.454Z</time>
      </trkpt>
      <trkpt lat="45.91459" lon="4.69813">
        <ele>250.25</ele>
        <time>2025-09-15T12:31:53.496Z</time>
      </trkpt>
      <trkpt lat="45.91463" lon="4.69797">
        <ele>250.97</ele>
        <time>2025-09-15T12:31:54.546Z</time>
      </trkpt>
      <trkpt lat="45.91463" lon="4.69795">
        <ele>251.62</ele>
        <time>2025-09-15T12:31:55.597Z</time>
      </trkpt>
      <trkpt lat="45.91463" lon="4.69792">
        <ele>252.25</ele>
        <time>2025-09-15T12:31:56.649Z</time>
      </trkpt>
      <trkpt lat="45.91466" lon="4.69772">
        <ele>252.99</ele>
        <time>2025-09-15T12:31:57.710Z</time>
      </trkpt>
      <trkpt lat="45.91467" lon="4.69766">
        <ele>253.61</ele>
        <time>2025-09-15T12:31:58.773Z</time>
      </trkpt>
      <trkpt lat="45.91468" lon="4.69761">
        <ele>254.21</ele>
        <time>2025-09-15T12:31:59.838Z</time>
      </trkpt>
      <trkpt lat="45.91469" lon="4.69754">
        <ele>254.8</ele>
        <time>2025-09-15T12:32:00.907Z</time>
      </trkpt>
      <trkpt lat="45.91469" lon="4.69751">
        <ele>255.35</ele>
        <time>2025-09-15T12:32:01.977Z</time>
      </trkpt>
      <trkpt lat="45.91471" lon="4.69737">
        <ele>255.96</ele>
        <time>2025-09-15T12:32:03.053Z</time>
      </trkpt>
      <trkpt lat="45.91472" lon="4.69735">
        <ele>256.49</ele>
        <time>2025-09-15T12:32:04.130Z</time>
      </trkpt>
      <trkpt lat="45.91473" lon="4.69731">
        <ele>257.03</ele>
        <time>2025-09-15T12:32:05.209Z</time>
      </trkpt>
      <trkpt lat="45.91476" lon="4.69721">
        <ele>257.6</ele>
        <time>2025-09-15T12:32:06.292Z</time>
      </trkpt>
      <trkpt lat="45.9148" lon="4.69704">
        <ele>258.18</ele>
        <time>2025-09-15T12:32:07.383Z</time>
      </trkpt>
      <trkpt lat="45.9148" lon="4.69701">
        <ele>258.71</ele>
        <time>2025-09-15T12:32:08.475Z</time>
      </trkpt>
      <trkpt lat="45.91484" lon="4.69692">
        <ele>259.27</ele>
        <time>2025-09-15T12:32:09.572Z</time>
      </trkpt>
      <trkpt lat="45.91486" lon="4.69686">
        <ele>259.84</ele>
        <time>2025-09-15T12:32:10.672Z</time>
      </trkpt>
      <trkpt lat="45.91489" lon="4.69671">
        <ele>260.44</ele>
        <time>2025-09-15T12:32:11.778Z</time>
      </trkpt>
      <trkpt lat="45.91489" lon="4.69655">
        <ele>261.03</ele>
        <time>2025-09-15T12:32:12.891Z</time>
      </trkpt>
      <trkpt lat="45.91489" lon="4.69647">
        <ele>261.66</ele>
        <time>2025-09-15T12:32:14.008Z</time>
      </trkpt>
      <trkpt lat="45.9149" lon="4.69627">
        <ele>262.36</ele>
        <time>2025-09-15T12:32:15.133Z</time>
      </trkpt>
      <trkpt lat="45.91496" lon="4.69608">
        <ele>263.13</ele>
        <time>2025-09-15T12:32:16.267Z</time>
      </trkpt>
      <trkpt lat="45.91504" lon="4.69591">
        <ele>263.96</ele>
        <time>2025-09-15T12:32:17.410Z</time>
      </trkpt>
      <trkpt lat="45.91509" lon="4.69578">
        <ele>264.79</ele>
        <time>2025-09-15T12:32:18.559Z</time>
      </trkpt>
      <trkpt lat="45.91519" lon="4.69564">
        <ele>265.65</ele>
        <time>2025-09-15T12:32:19.717Z</time>
      </trkpt>
      <trkpt lat="45.91531" lon="4.69554">
        <ele>266.5</ele>
        <time>2025-09-15T12:32:20.883Z</time>
      </trkpt>
      <trkpt lat="45.91538" lon="4.69549">
        <ele>267.28</ele>
        <time>2025-09-15T12:32:22.054Z</time>
      </trkpt>
      <trkpt lat="45.91545" lon="4.69542">
        <ele>268.04</ele>
        <time>2025-09-15T12:32:23.230Z</time>
      </trkpt>
      <trkpt lat="45.91556" lon="4.6953">
        <ele>268.79</ele>
        <time>2025-09-15T12:32:24.414Z</time>
      </trkpt>
      <trkpt lat="45.91566" lon="4.69516">
        <ele>269.61</ele>
        <time>2025-09-15T12:32:25.607Z</time>
      </trkpt>
      <trkpt lat="45.91569" lon="4.69513">
        <ele>270.39</ele>
        <time>2025-09-15T12:32:26.802Z</time>
      </trkpt>
      <trkpt lat="45.91573" lon="4.69509">
        <ele>271.19</ele>
        <time>2025-09-15T12:32:28.000Z</time>
      </trkpt>
      <trkpt lat="45.91576" lon="4.69504">
        <ele>271.99</ele>
        <time>2025-09-15T12:32:29.201Z</time>
      </trkpt>
      <trkpt lat="45.91586" lon="4.69488">
        <ele>272.83</ele>
        <time>2025-09-15T12:32:30.411Z</time>
      </trkpt>
      <trkpt lat="45.91586" lon="4.69486">
        <ele>273.67</ele>
        <time>2025-09-15T12:32:31.622Z</time>
      </trkpt>
      <trkpt lat="45.91589" lon="4.69469">
        <ele>274.62</ele>
        <time>2025-09-15T12:32:32.841Z</time>
      </trkpt>
      <trkpt lat="45.91586" lon="4.69451">
        <ele>275.57</ele>
        <time>2025-09-15T12:32:34.068Z</time>
      </trkpt>
      <trkpt lat="45.91585" lon="4.69446">
        <ele>276.47</ele>
        <time>2025-09-15T12:32:35.297Z</time>
      </trkpt>
      <trkpt lat="45.91582" lon="4.69424">
        <ele>277.5</ele>
        <time>2025-09-15T12:32:36.535Z</time>
      </trkpt>
      <trkpt lat="45.91578" lon="4.69399">
        <ele>278.47</ele>
        <time>2025-09-15T12:32:37.784Z</time>
      </trkpt>
      <trkpt lat="45.91576" lon="4.69386">
        <ele>279.36</ele>
        <time>2025-09-15T12:32:39.039Z</time>
      </trkpt>
      <trkpt lat="45.91575" lon="4.69376">
        <ele>280.21</ele>
        <time>2025-09-15T12:32:40.298Z</time>
      </trkpt>
      <trkpt lat="45.91573" lon="4.69363">
        <ele>281.02</ele>
        <time>2025-09-15T12:32:41.563Z</time>
      </trkpt>
      <trkpt lat="45.91572" lon="4.69354">
        <ele>281.77</ele>
        <time>2025-09-15T12:32:42.832Z</time>
      </trkpt>
      <trkpt lat="45.91573" lon="4.69334">
        <ele>282.53</ele>
        <time>2025-09-15T12:32:44.109Z</time>
      </trkpt>
      <trkpt lat="45.91573" lon="4.69317">
        <ele>283.23</ele>
        <time>2025-09-15T12:32:45.394Z</time>
      </trkpt>
      <trkpt lat="45.91573" lon="4.69314">
        <ele>283.85</ele>
        <time>2025-09-15T12:32:46.680Z</time>
      </trkpt>
      <trkpt lat="45.91573" lon="4.69303">
        <ele>284.44</ele>
        <time>2025-09-15T12:32:47.970Z</time>
      </trkpt>
      <trkpt lat="45.91573" lon="4.69291">
        <ele>284.99</ele>
        <time>2025-09-15T12:32:49.266Z</time>
      </trkpt>
      <trkpt lat="45.9157" lon="4.69279">
        <ele>285.51</ele>
        <time>2025-09-15T12:32:50.567Z</time>
      </trkpt>
      <trkpt lat="45.91569" lon="4.69277">
        <ele>285.94</ele>
        <time>2025-09-15T12:32:51.869Z</time>
      </trkpt>
      <trkpt lat="45.91564" lon="4.69263">
        <ele>286.37</ele>
        <time>2025-09-15T12:32:53.178Z</time>
      </trkpt>
      <trkpt lat="45.91562" lon="4.69252">
        <ele>286.75</ele>
        <time>2025-09-15T12:32:54.492Z</time>
      </trkpt>
      <trkpt lat="45.91556" lon="4.69229">
        <ele>287.18</ele>
        <time>2025-09-15T12:32:55.816Z</time>
      </trkpt>
      <trkpt lat="45.91555" lon="4.69227">
        <ele>287.43</ele>
        <time>2025-09-15T12:32:57.141Z</time>
      </trkpt>
      <trkpt lat="45.91545" lon="4.69215">
        <ele>287.69</ele>
        <time>2025-09-15T12:32:58.474Z</time>
      </trkpt>
      <trkpt lat="45.91526" lon="4.6921">
        <ele>287.78</ele>
        <time>2025-09-15T12:32:59.819Z</time>
      </trkpt>
      <trkpt lat="45.91509" lon="4.69207">
        <ele>287.86</ele>
        <time>2025-09-15T12:33:01.175Z</time>
      </trkpt>
      <trkpt lat="45.91489" lon="4.69204">
        <ele>287.97</ele>
        <time>2025-09-15T12:33:02.543Z</time>
      </trkpt>
      <trkpt lat="45.9147" lon="4.69202">
        <ele>288.04</ele>
        <time>2025-09-15T12:33:03.923Z</time>
      </trkpt>
      <trkpt lat="45.91468" lon="4.69201">
        <ele>288.09</ele>
        <time>2025-09-15T12:33:05.304Z</time>
      </trkpt>
      <trkpt lat="45.9145" lon="4.69204">
        <ele>288.13</ele>
        <time>2025-09-15T12:33:06.696Z</time>
      </trkpt>
      <trkpt lat="45.91445" lon="4.69204">
        <ele>288.17</ele>
        <time>2025-09-15T12:33:08.091Z</time>
      </trkpt>
      <trkpt lat="45.91426" lon="4.69207">
        <ele>288.25</ele>
        <time>2025-09-15T12:33:09.498Z</time>
      </trkpt>
      <trkpt lat="45.91423" lon="4.69207">
        <ele>288.35</ele>
        <time>2025-09-15T12:33:10.907Z</time>
      </trkpt>
      <trkpt lat="45.91412" lon="4.69207">
        <ele>288.51</ele>
        <time>2025-09-15T12:33:12.323Z</time>
      </trkpt>
      <trkpt lat="45.91397" lon="4.69208">
        <ele>288.7</ele>
        <time>2025-09-15T12:33:13.748Z</time>
      </trkpt>
      <trkpt lat="45.91378" lon="4.69207">
        <ele>288.93</ele>
        <time>2025-09-15T12:33:15.185Z</time>
      </trkpt>
      <trkpt lat="45.91375" lon="4.69207">
        <ele>289.22</ele>
        <time>2025-09-15T12:33:16.623Z</time>
      </trkpt>
      <trkpt lat="45.9136" lon="4.69205">
        <ele>289.65</ele>
        <time>2025-09-15T12:33:18.070Z</time>
      </trkpt>
      <trkpt lat="45.91358" lon="4.69203">
        <ele>290.12</ele>
        <time>2025-09-15T12:33:19.519Z</time>
      </trkpt>
      <trkpt lat="45.91356" lon="4.69196">
        <ele>290.72</ele>
        <time>2025-09-15T12:33:20.971Z</time>
      </trkpt>
      <trkpt lat="45.91356" lon="4.69194">
        <ele>291.38</ele>
        <time>2025-09-15T12:33:22.424Z</time>
      </trkpt>
      <trkpt lat="45.91357" lon="4.69186">
        <ele>292.16</ele>
        <time>2025-09-15T12:33:23.880Z</time>
      </trkpt>
      <trkpt lat="45.91358" lon="4.69168">
        <ele>293.1</ele>
        <time>2025-09-15T12:33:25.344Z</time>
      </trkpt>
      <trkpt lat="45.91358" lon="4.69155">
        <ele>294.14</ele>
        <time>2025-09-15T12:33:26.813Z</time>
      </trkpt>
      <trkpt lat="45.91358" lon="4.69148">
        <ele>295.21</ele>
        <time>2025-09-15T12:33:28.285Z</time>
      </trkpt>
      <trkpt lat="45.91359" lon="4.69121">
        <ele>296.49</ele>
        <time>2025-09-15T12:33:29.769Z</time>
      </trkpt>
      <trkpt lat="45.91359" lon="4.6912">
        <ele>297.67</ele>
        <time>2025-09-15T12:33:31.254Z</time>
      </trkpt>
      <trkpt lat="45.9136" lon="4.69099">
        <ele>299.08</ele>
        <time>2025-09-15T12:33:32.748Z</time>
      </trkpt>
      <trkpt lat="45.91361" lon="4.69097">
        <ele>300.38</ele>
        <time>2025-09-15T12:33:34.242Z</time>
      </trkpt>
      <trkpt lat="45.91362" lon="4.69078">
        <ele>301.93</ele>
        <time>2025-09-15T12:33:35.745Z</time>
      </trkpt>
      <trkpt lat="45.91365" lon="4.69066">
        <ele>303.44</ele>
        <time>2025-09-15T12:33:37.253Z</time>
      </trkpt>
      <trkpt lat="45.91368" lon="4.69062">
        <ele>304.85</ele>
        <time>2025-09-15T12:33:38.763Z</time>
      </trkpt>
      <trkpt lat="45.91372" lon="4.69053">
        <ele>306.37</ele>
        <time>2025-09-15T12:33:40.278Z</time>
      </trkpt>
      <trkpt lat="45.91373" lon="4.69051">
        <ele>307.75</ele>
        <time>2025-09-15T12:33:41.794Z</time>
      </trkpt>
      <trkpt lat="45.91375" lon="4.69039">
        <ele>309.29</ele>
        <time>2025-09-15T12:33:43.316Z</time>
      </trkpt>
      <trkpt lat="45.91375" lon="4.69037">
        <ele>310.64</ele>
        <time>2025-09-15T12:33:44.838Z</time>
      </trkpt>
      <trkpt lat="45.91375" lon="4.69033">
        <ele>311.99</ele>
        <time>2025-09-15T12:33:46.362Z</time>
      </trkpt>
      <trkpt lat="45.91375" lon="4.69031">
        <ele>313.26</ele>
        <time>2025-09-15T12:33:47.887Z</time>
      </trkpt>
      <trkpt lat="45.91377" lon="4.69022">
        <ele>314.55</ele>
        <time>2025-09-15T12:33:49.416Z</time>
      </trkpt>
      <trkpt lat="45.91379" lon="4.69008">
        <ele>315.85</ele>
        <time>2025-09-15T12:33:50.951Z</time>
      </trkpt>
      <trkpt lat="45.9138" lon="4.69005">
        <ele>317.08</ele>
        <time>2025-09-15T12:33:52.487Z</time>
      </trkpt>
      <trkpt lat="45.91384" lon="4.6899">
        <ele>318.4</ele>
        <time>2025-09-15T12:33:54.030Z</time>
      </trkpt>
      <trkpt lat="45.91384" lon="4.68988">
        <ele>319.55</ele>
        <time>2025-09-15T12:33:55.574Z</time>
      </trkpt>
      <trkpt lat="45.91389" lon="4.68974">
        <ele>320.78</ele>
        <time>2025-09-15T12:33:57.125Z</time>
      </trkpt>
      <trkpt lat="45.9139" lon="4.68968">
        <ele>321.95</ele>
        <time>2025-09-15T12:33:58.678Z</time>
      </trkpt>
      <trkpt lat="45.91391" lon="4.68961">
        <ele>323.08</ele>
        <time>2025-09-15T12:34:00.234Z</time>
      </trkpt>
      <trkpt lat="45.91392" lon="4.68957">
        <ele>324.12</ele>
        <time>2025-09-15T12:34:01.792Z</time>
      </trkpt>
      <trkpt lat="45.91392" lon="4.68955">
        <ele>325.09</ele>
        <time>2025-09-15T12:34:03.351Z</time>
      </trkpt>
      <trkpt lat="45.91393" lon="4.68948">
        <ele>326.09</ele>
        <time>2025-09-15T12:34:04.913Z</time>
      </trkpt>
      <trkpt lat="45.91395" lon="4.6894">
        <ele>327.03</ele>
        <time>2025-09-15T12:34:06.479Z</time>
      </trkpt>
      <trkpt lat="45.91398" lon="4.68935">
        <ele>327.89</ele>
        <time>2025-09-15T12:34:08.048Z</time>
      </trkpt>
      <trkpt lat="45.91399" lon="4.68934">
        <ele>328.62</ele>
        <time>2025-09-15T12:34:09.617Z</time>
      </trkpt>
      <trkpt lat="45.914" lon="4.68932">
        <ele>329.3</ele>
        <time>2025-09-15T12:34:11.187Z</time>
      </trkpt>
      <trkpt lat="45.91403" lon="4.68927">
        <ele>329.94</ele>
        <time>2025-09-15T12:34:12.760Z</time>
      </trkpt>
      <trkpt lat="45.91409" lon="4.68922">
        <ele>330.52</ele>
        <time>2025-09-15T12:34:14.337Z</time>
      </trkpt>
      <trkpt lat="45.9141" lon="4.6892">
        <ele>331</ele>
        <time>2025-09-15T12:34:15.915Z</time>
      </trkpt>
      <trkpt lat="45.91415" lon="4.68907">
        <ele>331.51</ele>
        <time>2025-09-15T12:34:17.499Z</time>
      </trkpt>
      <trkpt lat="45.91418" lon="4.68901">
        <ele>331.87</ele>
        <time>2025-09-15T12:34:19.087Z</time>
      </trkpt>
      <trkpt lat="45.91419" lon="4.68897">
        <ele>332.17</ele>
        <time>2025-09-15T12:34:20.677Z</time>
      </trkpt>
      <trkpt lat="45.9142" lon="4.68895">
        <ele>332.37</ele>
        <time>2025-09-15T12:34:22.267Z</time>
      </trkpt>
      <trkpt lat="45.91421" lon="4.68891">
        <ele>332.53</ele>
        <time>2025-09-15T12:34:23.860Z</time>
      </trkpt>
      <trkpt lat="45.91425" lon="4.68887">
        <ele>332.6</ele>
        <time>2025-09-15T12:34:25.455Z</time>
      </trkpt>
      <trkpt lat="45.91426" lon="4.68886">
        <ele>332.64</ele>
        <time>2025-09-15T12:34:27.051Z</time>
      </trkpt>
      <trkpt lat="45.91426" lon="4.6888">
        <ele>332.68</ele>
        <time>2025-09-15T12:34:28.649Z</time>
      </trkpt>
      <trkpt lat="45.91428" lon="4.68876">
        <ele>332.66</ele>
        <time>2025-09-15T12:34:30.250Z</time>
      </trkpt>
      <trkpt lat="45.91429" lon="4.68874">
        <ele>332.65</ele>
        <time>2025-09-15T12:34:31.852Z</time>
      </trkpt>
      <trkpt lat="45.91431" lon="4.68866">
        <ele>332.66</ele>
        <time>2025-09-15T12:34:33.457Z</time>
      </trkpt>
      <trkpt lat="45.91431" lon="4.68864">
        <ele>332.64</ele>
        <time>2025-09-15T12:34:35.063Z</time>
      </trkpt>
      <trkpt lat="45.91432" lon="4.68863">
        <ele>332.66</ele>
        <time>2025-09-15T12:34:36.670Z</time>
      </trkpt>
      <trkpt lat="45.91433" lon="4.68857">
        <ele>332.69</ele>
        <time>2025-09-15T12:34:38.280Z</time>
      </trkpt>
      <trkpt lat="45.91434" lon="4.68847">
        <ele>332.77</ele>
        <time>2025-09-15T12:34:39.894Z</time>
      </trkpt>
      <trkpt lat="45.91434" lon="4.68845">
        <ele>332.94</ele>
        <time>2025-09-15T12:34:41.509Z</time>
      </trkpt>
      <trkpt lat="45.91434" lon="4.68838">
        <ele>333.2</ele>
        <time>2025-09-15T12:34:43.127Z</time>
      </trkpt>
      <trkpt lat="45.91435" lon="4.68837">
        <ele>333.54</ele>
        <time>2025-09-15T12:34:44.745Z</time>
      </trkpt>
      <trkpt lat="45.91435" lon="4.68833">
        <ele>333.98</ele>
        <time>2025-09-15T12:34:46.365Z</time>
      </trkpt>
      <trkpt lat="45.91436" lon="4.68822">
        <ele>334.54</ele>
        <time>2025-09-15T12:34:47.990Z</time>
      </trkpt>
      <trkpt lat="45.91436" lon="4.68813">
        <ele>335.21</ele>
        <time>2025-09-15T12:34:49.618Z</time>
      </trkpt>
      <trkpt lat="45.91436" lon="4.68799">
        <ele>336.07</ele>
        <time>2025-09-15T12:34:51.252Z</time>
      </trkpt>
      <trkpt lat="45.91436" lon="4.68797">
        <ele>336.92</ele>
        <time>2025-09-15T12:34:52.887Z</time>
      </trkpt>
      <trkpt lat="45.91436" lon="4.68795">
        <ele>337.87</ele>
        <time>2025-09-15T12:34:54.523Z</time>
      </trkpt>
      <trkpt lat="45.91436" lon="4.68793">
        <ele>338.89</ele>
        <time>2025-09-15T12:34:56.160Z</time>
      </trkpt>
      <trkpt lat="45.91437" lon="4.68784">
        <ele>340.07</ele>
        <time>2025-09-15T12:34:57.801Z</time>
      </trkpt>
      <trkpt lat="45.91437" lon="4.68773">
        <ele>341.46</ele>
        <time>2025-09-15T12:34:59.447Z</time>
      </trkpt>
      <trkpt lat="45.91437" lon="4.6877">
        <ele>342.7</ele>
        <time>2025-09-15T12:35:01.094Z</time>
      </trkpt>
      <trkpt lat="45.91438" lon="4.68766">
        <ele>344</ele>
        <time>2025-09-15T12:35:02.743Z</time>
      </trkpt>
      <trkpt lat="45.91438" lon="4.68753">
        <ele>345.45</ele>
        <time>2025-09-15T12:35:04.398Z</time>
      </trkpt>
      <trkpt lat="45.91437" lon="4.68748">
        <ele>346.71</ele>
        <time>2025-09-15T12:35:06.054Z</time>
      </trkpt>
      <trkpt lat="45.91438" lon="4.68738">
        <ele>348</ele>
        <time>2025-09-15T12:35:07.715Z</time>
      </trkpt>
      <trkpt lat="45.91438" lon="4.68736">
        <ele>349.15</ele>
        <time>2025-09-15T12:35:09.377Z</time>
      </trkpt>
      <trkpt lat="45.9144" lon="4.68728">
        <ele>350.38</ele>
        <time>2025-09-15T12:35:11.043Z</time>
      </trkpt>
      <trkpt lat="45.91444" lon="4.6872">
        <ele>351.47</ele>
        <time>2025-09-15T12:35:12.713Z</time>
      </trkpt>
      <trkpt lat="45.91446" lon="4.68713">
        <ele>352.46</ele>
        <time>2025-09-15T12:35:14.386Z</time>
      </trkpt>
      <trkpt lat="45.91447" lon="4.6871">
        <ele>353.32</ele>
        <time>2025-09-15T12:35:16.060Z</time>
      </trkpt>
      <trkpt lat="45.91448" lon="4.68707">
        <ele>354.09</ele>
        <time>2025-09-15T12:35:17.735Z</time>
      </trkpt>
      <trkpt lat="45.91448" lon="4.68705">
        <ele>354.79</ele>
        <time>2025-09-15T12:35:19.412Z</time>
      </trkpt>
      <trkpt lat="45.91449" lon="4.68701">
        <ele>355.4</ele>
        <time>2025-09-15T12:35:21.090Z</time>
      </trkpt>
      <trkpt lat="45.9145" lon="4.68695">
        <ele>355.98</ele>
        <time>2025-09-15T12:35:22.771Z</time>
      </trkpt>
      <trkpt lat="45.9145" lon="4.68694">
        <ele>356.44</ele>
        <time>2025-09-15T12:35:24.452Z</time>
      </trkpt>
      <trkpt lat="45.9145" lon="4.68694">
        <ele>356.85</ele>
        <time>2025-09-15T12:35:26.134Z</time>
      </trkpt>
      <trkpt lat="45.91451" lon="4.68693">
        <ele>357.21</ele>
        <time>2025-09-15T12:35:27.816Z</time>
      </trkpt>
      <trkpt lat="45.91451" lon="4.68693">
        <ele>357.53</ele>
        <time>2025-09-15T12:35:29.498Z</time>
      </trkpt>
      <trkpt lat="45.91445" lon="4.6869">
        <ele>357.87</ele>
        <time>2025-09-15T12:35:31.184Z</time>
      </trkpt>
      <trkpt lat="45.91443" lon="4.68688">
        <ele>358.19</ele>
        <time>2025-09-15T12:35:32.871Z</time>
      </trkpt>
      <trkpt lat="45.91439" lon="4.68681">
        <ele>358.53</ele>
        <time>2025-09-15T12:35:34.562Z</time>
      </trkpt>
      <trkpt lat="45.91439" lon="4.68681">
        <ele>358.84</ele>
        <time>2025-09-15T12:35:36.253Z</time>
      </trkpt>
      <trkpt lat="45.91438" lon="4.68678">
        <ele>359.19</ele>
        <time>2025-09-15T12:35:37.946Z</time>
      </trkpt>
      <trkpt lat="45.91436" lon="4.68673">
        <ele>359.58</ele>
        <time>2025-09-15T12:35:39.641Z</time>
      </trkpt>
      <trkpt lat="45.91432" lon="4.68663">
        <ele>360.05</ele>
        <time>2025-09-15T12:35:41.341Z</time>
      </trkpt>
      <trkpt lat="45.91428" lon="4.68654">
        <ele>360.56</ele>
        <time>2025-09-15T12:35:43.045Z</time>
      </trkpt>
      <trkpt lat="45.91428" lon="4.68653">
        <ele>361.06</ele>
        <time>2025-09-15T12:35:44.750Z</time>
      </trkpt>
      <trkpt lat="45.91426" lon="4.68651">
        <ele>361.63</ele>
        <time>2025-09-15T12:35:46.456Z</time>
      </trkpt>
      <trkpt lat="45.91425" lon="4.68646">
        <ele>362.27</ele>
        <time>2025-09-15T12:35:48.165Z</time>
      </trkpt>
      <trkpt lat="45.91421" lon="4.68638">
        <ele>363.05</ele>
        <time>2025-09-15T12:35:49.878Z</time>
      </trkpt>
      <trkpt lat="45.91418" lon="4.68631">
        <ele>363.86</ele>
        <time>2025-09-15T12:35:51.594Z</time>
      </trkpt>
      <trkpt lat="45.91418" lon="4.6863">
        <ele>364.62</ele>
        <time>2025-09-15T12:35:53.311Z</time>
      </trkpt>
      <trkpt lat="45.91415" lon="4.68623">
        <ele>365.51</ele>
        <time>2025-09-15T12:35:55.031Z</time>
      </trkpt>
      <trkpt lat="45.91415" lon="4.68623">
        <ele>366.33</ele>
        <time>2025-09-15T12:35:56.751Z</time>
      </trkpt>
      <trkpt lat="45.91413" lon="4.6862">
        <ele>367.23</ele>
        <time>2025-09-15T12:35:58.473Z</time>
      </trkpt>
      <trkpt lat="45.91411" lon="4.68615">
        <ele>368.19</ele>
        <time>2025-09-15T12:36:00.197Z</time>
      </trkpt>
      <trkpt lat="45.91409" lon="4.68611">
        <ele>369.15</ele>
        <time>2025-09-15T12:36:01.923Z</time>
      </trkpt>
      <trkpt lat="45.91408" lon="4.68607">
        <ele>370.14</ele>
        <time>2025-09-15T12:36:03.651Z</time>
      </trkpt>
      <trkpt lat="45.91405" lon="4.68602">
        <ele>371.16</ele>
        <time>2025-09-15T12:36:05.382Z</time>
      </trkpt>
      <trkpt lat="45.91403" lon="4.68598">
        <ele>372.19</ele>
        <time>2025-09-15T12:36:07.115Z</time>
      </trkpt>
      <trkpt lat="45.91402" lon="4.68596">
        <ele>373.2</ele>
        <time>2025-09-15T12:36:08.849Z</time>
      </trkpt>
      <trkpt lat="45.91401" lon="4.68594">
        <ele>374.23</ele>
        <time>2025-09-15T12:36:10.584Z</time>
      </trkpt>
      <trkpt lat="45.914" lon="4.68591">
        <ele>375.28</ele>
        <time>2025-09-15T12:36:12.321Z</time>
      </trkpt>
      <trkpt lat="45.91397" lon="4.68584">
        <ele>376.4</ele>
        <time>2025-09-15T12:36:14.061Z</time>
      </trkpt>
      <trkpt lat="45.91391" lon="4.68572">
        <ele>377.57</ele>
        <time>2025-09-15T12:36:15.808Z</time>
      </trkpt>
      <trkpt lat="45.91386" lon="4.68562">
        <ele>378.7</ele>
        <time>2025-09-15T12:36:17.560Z</time>
      </trkpt>
      <trkpt lat="45.91381" lon="4.68552">
        <ele>379.86</ele>
        <time>2025-09-15T12:36:19.317Z</time>
      </trkpt>
      <trkpt lat="45.91377" lon="4.68543">
        <ele>380.99</ele>
        <time>2025-09-15T12:36:21.079Z</time>
      </trkpt>
      <trkpt lat="45.91377" lon="4.68541">
        <ele>381.96</ele>
        <time>2025-09-15T12:36:22.841Z</time>
      </trkpt>
      <trkpt lat="45.91376" lon="4.6854">
        <ele>382.9</ele>
        <time>2025-09-15T12:36:24.604Z</time>
      </trkpt>
      <trkpt lat="45.91375" lon="4.68536">
        <ele>383.84</ele>
        <time>2025-09-15T12:36:26.369Z</time>
      </trkpt>
      <trkpt lat="45.91374" lon="4.68535">
        <ele>384.69</ele>
        <time>2025-09-15T12:36:28.134Z</time>
      </trkpt>
      <trkpt lat="45.91374" lon="4.68534">
        <ele>385.51</ele>
        <time>2025-09-15T12:36:29.900Z</time>
      </trkpt>
      <trkpt lat="45.91372" lon="4.68532">
        <ele>386.31</ele>
        <time>2025-09-15T12:36:31.667Z</time>
      </trkpt>
      <trkpt lat="45.9137" lon="4.68529">
        <ele>387.1</ele>
        <time>2025-09-15T12:36:33.436Z</time>
      </trkpt>
      <trkpt lat="45.91368" lon="4.68525">
        <ele>387.85</ele>
        <time>2025-09-15T12:36:35.207Z</time>
      </trkpt>
      <trkpt lat="45.91367" lon="4.68522">
        <ele>388.55</ele>
        <time>2025-09-15T12:36:36.980Z</time>
      </trkpt>
      <trkpt lat="45.91365" lon="4.68518">
        <ele>389.23</ele>
        <time>2025-09-15T12:36:38.755Z</time>
      </trkpt>
      <trkpt lat="45.91364" lon="4.68513">
        <ele>389.88</ele>
        <time>2025-09-15T12:36:40.532Z</time>
      </trkpt>
      <trkpt lat="45.91361" lon="4.68505">
        <ele>390.53</ele>
        <time>2025-09-15T12:36:42.313Z</time>
      </trkpt>
      <trkpt lat="45.91361" lon="4.68503">
        <ele>391.06</ele>
        <time>2025-09-15T12:36:44.095Z</time>
      </trkpt>
      <trkpt lat="45.91361" lon="4.68498">
        <ele>391.56</ele>
        <time>2025-09-15T12:36:45.879Z</time>
      </trkpt>
      <trkpt lat="45.91363" lon="4.68485">
        <ele>392.05</ele>
        <time>2025-09-15T12:36:47.668Z</time>
      </trkpt>
      <trkpt lat="45.91363" lon="4.68473">
        <ele>392.51</ele>
        <time>2025-09-15T12:36:49.463Z</time>
      </trkpt>
      <trkpt lat="45.91363" lon="4.6846">
        <ele>392.91</ele>
        <time>2025-09-15T12:36:51.263Z</time>
      </trkpt>
      <trkpt lat="45.91363" lon="4.68458">
        <ele>393.26</ele>
        <time>2025-09-15T12:36:53.064Z</time>
      </trkpt>
      <trkpt lat="45.91365" lon="4.68444">
        <ele>393.59</ele>
        <time>2025-09-15T12:36:54.871Z</time>
      </trkpt>
      <trkpt lat="45.91364" lon="4.68443">
        <ele>393.88</ele>
        <time>2025-09-15T12:36:56.679Z</time>
      </trkpt>
      <trkpt lat="45.91364" lon="4.6844">
        <ele>394.15</ele>
        <time>2025-09-15T12:36:58.488Z</time>
      </trkpt>
      <trkpt lat="45.91364" lon="4.68435">
        <ele>394.4</ele>
        <time>2025-09-15T12:37:00.299Z</time>
      </trkpt>
      <trkpt lat="45.91366" lon="4.68419">
        <ele>394.64</ele>
        <time>2025-09-15T12:37:02.117Z</time>
      </trkpt>
      <trkpt lat="45.91366" lon="4.68416">
        <ele>394.85</ele>
        <time>2025-09-15T12:37:03.936Z</time>
      </trkpt>
      <trkpt lat="45.91366" lon="4.68413">
        <ele>395.06</ele>
        <time>2025-09-15T12:37:05.756Z</time>
      </trkpt>
      <trkpt lat="45.91363" lon="4.68407">
        <ele>395.28</ele>
        <time>2025-09-15T12:37:07.580Z</time>
      </trkpt>
      <trkpt lat="45.91361" lon="4.68404">
        <ele>395.48</ele>
        <time>2025-09-15T12:37:09.405Z</time>
      </trkpt>
      <trkpt lat="45.91361" lon="4.68403">
        <ele>395.64</ele>
        <time>2025-09-15T12:37:11.231Z</time>
      </trkpt>
      <trkpt lat="45.91361" lon="4.68403">
        <ele>395.79</ele>
        <time>2025-09-15T12:37:13.057Z</time>
      </trkpt>
      <trkpt lat="45.91358" lon="4.68402">
        <ele>395.95</ele>
        <time>2025-09-15T12:37:14.884Z</time>
      </trkpt>
      <trkpt lat="45.91358" lon="4.68402">
        <ele>396.09</ele>
        <time>2025-09-15T12:37:16.712Z</time>
      </trkpt>
      <trkpt lat="45.91358" lon="4.68402">
        <ele>396.23</ele>
        <time>2025-09-15T12:37:18.540Z</time>
      </trkpt>
      <trkpt lat="45.91358" lon="4.68402">
        <ele>396.36</ele>
        <time>2025-09-15T12:37:20.368Z</time>
      </trkpt>
      <trkpt lat="45.91351" lon="4.68409">
        <ele>396.5</ele>
        <time>2025-09-15T12:37:22.201Z</time>
      </trkpt>
      <trkpt lat="45.91346" lon="4.68412">
        <ele>396.66</ele>
        <time>2025-09-15T12:37:24.038Z</time>
      </trkpt>
      <trkpt lat="45.91343" lon="4.68413">
        <ele>396.78</ele>
        <time>2025-09-15T12:37:25.876Z</time>
      </trkpt>
      <trkpt lat="45.91341" lon="4.68413">
        <ele>396.89</ele>
        <time>2025-09-15T12:37:27.716Z</time>
      </trkpt>
      <trkpt lat="45.91339" lon="4.68413">
        <ele>396.99</ele>
        <time>2025-09-15T12:37:29.557Z</time>
      </trkpt>
      <trkpt lat="45.9133" lon="4.68411">
        <ele>397.09</ele>
        <time>2025-09-15T12:37:31.403Z</time>
      </trkpt>
      <trkpt lat="45.91326" lon="4.68409">
        <ele>397.18</ele>
        <time>2025-09-15T12:37:33.252Z</time>
      </trkpt>
      <trkpt lat="45.91321" lon="4.68405">
        <ele>397.26</ele>
        <time>2025-09-15T12:37:35.104Z</time>
      </trkpt>
      <trkpt lat="45.91318" lon="4.68402">
        <ele>397.32</ele>
        <time>2025-09-15T12:37:36.959Z</time>
      </trkpt>
      <trkpt lat="45.91314" lon="4.68397">
        <ele>397.36</ele>
        <time>2025-09-15T12:37:38.817Z</time>
      </trkpt>
      <trkpt lat="45.91309" lon="4.68389">
        <ele>397.39</ele>
        <time>2025-09-15T12:37:40.680Z</time>
      </trkpt>
      <trkpt lat="45.91304" lon="4.68375">
        <ele>397.43</ele>
        <time>2025-09-15T12:37:42.549Z</time>
      </trkpt>
      <trkpt lat="45.91302" lon="4.68367">
        <ele>397.44</ele>
        <time>2025-09-15T12:37:44.422Z</time>
      </trkpt>
      <trkpt lat="45.91302" lon="4.68363">
        <ele>397.41</ele>
        <time>2025-09-15T12:37:46.297Z</time>
      </trkpt>
      <trkpt lat="45.91298" lon="4.68361">
        <ele>397.32</ele>
        <time>2025-09-15T12:37:48.174Z</time>
      </trkpt>
      <trkpt lat="45.91296" lon="4.68364">
        <ele>397.18</ele>
        <time>2025-09-15T12:37:50.053Z</time>
      </trkpt>
      <trkpt lat="45.91294" lon="4.68369">
        <ele>397.02</ele>
        <time>2025-09-15T12:37:51.935Z</time>
      </trkpt>
      <trkpt lat="45.91293" lon="4.68378">
        <ele>396.8</ele>
        <time>2025-09-15T12:37:53.821Z</time>
      </trkpt>
      <trkpt lat="45.91292" lon="4.68393">
        <ele>396.54</ele>
        <time>2025-09-15T12:37:55.713Z</time>
      </trkpt>
      <trkpt lat="45.91292" lon="4.68399">
        <ele>396.33</ele>
        <time>2025-09-15T12:37:57.608Z</time>
      </trkpt>
      <trkpt lat="45.91293" lon="4.6841">
        <ele>396.09</ele>
        <time>2025-09-15T12:37:59.507Z</time>
      </trkpt>
      <trkpt lat="45.9129" lon="4.6843">
        <ele>395.81</ele>
        <time>2025-09-15T12:38:01.415Z</time>
      </trkpt>
      <trkpt lat="45.91282" lon="4.68438">
        <ele>395.56</ele>
        <time>2025-09-15T12:38:03.329Z</time>
      </trkpt>
      <trkpt lat="45.91275" lon="4.68439">
        <ele>395.31</ele>
        <time>2025-09-15T12:38:05.248Z</time>
      </trkpt>
      <trkpt lat="45.91266" lon="4.6844">
        <ele>395.06</ele>
        <time>2025-09-15T12:38:07.172Z</time>
      </trkpt>
      <trkpt lat="45.91253" lon="4.68441">
        <ele>394.8</ele>
        <time>2025-09-15T12:38:09.104Z</time>
      </trkpt>
      <trkpt lat="45.91246" lon="4.6844">
        <ele>394.54</ele>
        <time>2025-09-15T12:38:11.040Z</time>
      </trkpt>
      <trkpt lat="45.91227" lon="4.68436">
        <ele>394.26</ele>
        <time>2025-09-15T12:38:12.988Z</time>
      </trkpt>
      <trkpt lat="45.91219" lon="4.68435">
        <ele>393.92</ele>
        <time>2025-09-15T12:38:14.941Z</time>
      </trkpt>
      <trkpt lat="45.912" lon="4.6843">
        <ele>393.51</ele>
        <time>2025-09-15T12:38:16.906Z</time>
      </trkpt>
      <trkpt lat="45.91198" lon="4.6843">
        <ele>393.12</ele>
        <time>2025-09-15T12:38:18.872Z</time>
      </trkpt>
      <trkpt lat="45.91179" lon="4.6843">
        <ele>392.61</ele>
        <time>2025-09-15T12:38:20.849Z</time>
      </trkpt>
      <trkpt lat="45.91166" lon="4.68436">
        <ele>392.05</ele>
        <time>2025-09-15T12:38:22.835Z</time>
      </trkpt>
      <trkpt lat="45.91155" lon="4.6844">
        <ele>391.47</ele>
        <time>2025-09-15T12:38:24.828Z</time>
      </trkpt>
      <trkpt lat="45.91141" lon="4.68437">
        <ele>390.9</ele>
        <time>2025-09-15T12:38:26.829Z</time>
      </trkpt>
      <trkpt lat="45.91123" lon="4.68434">
        <ele>390.28</ele>
        <time>2025-09-15T12:38:28.842Z</time>
      </trkpt>
      <trkpt lat="45.9112" lon="4.68435">
        <ele>389.63</ele>
        <time>2025-09-15T12:38:30.856Z</time>
      </trkpt>
      <trkpt lat="45.91102" lon="4.68433">
        <ele>388.87</ele>
        <time>2025-09-15T12:38:32.882Z</time>
      </trkpt>
      <trkpt lat="45.91092" lon="4.6843">
        <ele>388.07</ele>
        <time>2025-09-15T12:38:34.914Z</time>
      </trkpt>
      <trkpt lat="45.91077" lon="4.68423">
        <ele>387.26</ele>
        <time>2025-09-15T12:38:36.955Z</time>
      </trkpt>
      <trkpt lat="45.91061" lon="4.68419">
        <ele>386.3</ele>
        <time>2025-09-15T12:38:39.007Z</time>
      </trkpt>
      <trkpt lat="45.91056" lon="4.68418">
        <ele>385.3</ele>
        <time>2025-09-15T12:38:41.061Z</time>
      </trkpt>
      <trkpt lat="45.91037" lon="4.68411">
        <ele>384.14</ele>
        <time>2025-09-15T12:38:43.127Z</time>
      </trkpt>
      <trkpt lat="45.9102" lon="4.68406">
        <ele>382.93</ele>
        <time>2025-09-15T12:38:45.204Z</time>
      </trkpt>
      <trkpt lat="45.91008" lon="4.68402">
        <ele>381.67</ele>
        <time>2025-09-15T12:38:47.288Z</time>
      </trkpt>
      <trkpt lat="45.90998" lon="4.68401">
        <ele>380.32</ele>
        <time>2025-09-15T12:38:49.379Z</time>
      </trkpt>
      <trkpt lat="45.90986" lon="4.68402">
        <ele>378.85</ele>
        <time>2025-09-15T12:38:51.477Z</time>
      </trkpt>
      <trkpt lat="45.90986" lon="4.68404">
        <ele>377.41</ele>
        <time>2025-09-15T12:38:53.576Z</time>
      </trkpt>
      <trkpt lat="45.90989" lon="4.68408">
        <ele>375.91</ele>
        <time>2025-09-15T12:38:55.678Z</time>
      </trkpt>
      <trkpt lat="45.90991" lon="4.68421">
        <ele>374.26</ele>
        <time>2025-09-15T12:38:57.785Z</time>
      </trkpt>
      <trkpt lat="45.90991" lon="4.68423">
        <ele>372.63</ele>
        <time>2025-09-15T12:38:59.893Z</time>
      </trkpt>
      <trkpt lat="45.90988" lon="4.68437">
        <ele>370.78</ele>
        <time>2025-09-15T12:39:02.008Z</time>
      </trkpt>
      <trkpt lat="45.90988" lon="4.6844">
        <ele>369.07</ele>
        <time>2025-09-15T12:39:04.124Z</time>
      </trkpt>
      <trkpt lat="45.90987" lon="4.68444">
        <ele>367.32</ele>
        <time>2025-09-15T12:39:06.242Z</time>
      </trkpt>
      <trkpt lat="45.90984" lon="4.6847">
        <ele>365.33</ele>
        <time>2025-09-15T12:39:08.371Z</time>
      </trkpt>
      <trkpt lat="45.90979" lon="4.68492">
        <ele>363.4</ele>
        <time>2025-09-15T12:39:10.510Z</time>
      </trkpt>
      <trkpt lat="45.90974" lon="4.68512">
        <ele>361.56</ele>
        <time>2025-09-15T12:39:12.658Z</time>
      </trkpt>
      <trkpt lat="45.90971" lon="4.68528">
        <ele>359.89</ele>
        <time>2025-09-15T12:39:14.813Z</time>
      </trkpt>
      <trkpt lat="45.90965" lon="4.68534">
        <ele>358.38</ele>
        <time>2025-09-15T12:39:16.972Z</time>
      </trkpt>
      <trkpt lat="45.90963" lon="4.68534">
        <ele>357.03</ele>
        <time>2025-09-15T12:39:19.133Z</time>
      </trkpt>
      <trkpt lat="45.90959" lon="4.68532">
        <ele>355.8</ele>
        <time>2025-09-15T12:39:21.297Z</time>
      </trkpt>
      <trkpt lat="45.90957" lon="4.68531">
        <ele>354.69</ele>
        <time>2025-09-15T12:39:23.462Z</time>
      </trkpt>
      <trkpt lat="45.90947" lon="4.68528">
        <ele>353.61</ele>
        <time>2025-09-15T12:39:25.633Z</time>
      </trkpt>
      <trkpt lat="45.90935" lon="4.68525">
        <ele>352.65</ele>
        <time>2025-09-15T12:39:27.811Z</time>
      </trkpt>
      <trkpt lat="45.90927" lon="4.68522">
        <ele>351.87</ele>
        <time>2025-09-15T12:39:29.994Z</time>
      </trkpt>
      <trkpt lat="45.90923" lon="4.68519">
        <ele>351.34</ele>
        <time>2025-09-15T12:39:32.180Z</time>
      </trkpt>
      <trkpt lat="45.90921" lon="4.68519">
        <ele>350.95</ele>
        <time>2025-09-15T12:39:34.367Z</time>
      </trkpt>
      <trkpt lat="45.9091" lon="4.68515">
        <ele>350.69</ele>
        <time>2025-09-15T12:39:36.561Z</time>
      </trkpt>
      <trkpt lat="45.90908" lon="4.68514">
        <ele>350.59</ele>
        <time>2025-09-15T12:39:38.757Z</time>
      </trkpt>
      <trkpt lat="45.90896" lon="4.68506">
        <ele>350.68</ele>
        <time>2025-09-15T12:39:40.961Z</time>
      </trkpt>
      <trkpt lat="45.90886" lon="4.68497">
        <ele>350.93</ele>
        <time>2025-09-15T12:39:43.172Z</time>
      </trkpt>
      <trkpt lat="45.90883" lon="4.68498">
        <ele>351.22</ele>
        <time>2025-09-15T12:39:45.385Z</time>
      </trkpt>
      <trkpt lat="45.90887" lon="4.68505">
        <ele>351.56</ele>
        <time>2025-09-15T12:39:47.601Z</time>
      </trkpt>
      <trkpt lat="45.90903" lon="4.6852">
        <ele>351.91</ele>
        <time>2025-09-15T12:39:49.829Z</time>
      </trkpt>
      <trkpt lat="45.90904" lon="4.68522">
        <ele>352.5</ele>
        <time>2025-09-15T12:39:52.058Z</time>
      </trkpt>
      <trkpt lat="45.90919" lon="4.68528">
        <ele>353.16</ele>
        <time>2025-09-15T12:39:54.297Z</time>
      </trkpt>
      <trkpt lat="45.90937" lon="4.68534">
        <ele>354</ele>
        <time>2025-09-15T12:39:56.547Z</time>
      </trkpt>
      <trkpt lat="45.90956" lon="4.6854">
        <ele>355.03</ele>
        <time>2025-09-15T12:39:58.809Z</time>
      </trkpt>
      <trkpt lat="45.90958" lon="4.68541">
        <ele>355.85</ele>
        <time>2025-09-15T12:40:01.072Z</time>
      </trkpt>
      <trkpt lat="45.90977" lon="4.68547">
        <ele>356.7</ele>
        <time>2025-09-15T12:40:03.347Z</time>
      </trkpt>
      <trkpt lat="45.90986" lon="4.68552">
        <ele>357.5</ele>
        <time>2025-09-15T12:40:05.628Z</time>
      </trkpt>
      <trkpt lat="45.91005" lon="4.6856">
        <ele>358.29</ele>
        <time>2025-09-15T12:40:07.921Z</time>
      </trkpt>
      <trkpt lat="45.91011" lon="4.68563">
        <ele>359.01</ele>
        <time>2025-09-15T12:40:10.218Z</time>
      </trkpt>
      <trkpt lat="45.91029" lon="4.68569">
        <ele>359.75</ele>
        <time>2025-09-15T12:40:12.526Z</time>
      </trkpt>
      <trkpt lat="45.91031" lon="4.68569">
        <ele>360.33</ele>
        <time>2025-09-15T12:40:14.835Z</time>
      </trkpt>
      <trkpt lat="45.91045" lon="4.68576">
        <ele>360.82</ele>
        <time>2025-09-15T12:40:17.153Z</time>
      </trkpt>
      <trkpt lat="45.91051" lon="4.68579">
        <ele>361.15</ele>
        <time>2025-09-15T12:40:19.475Z</time>
      </trkpt>
      <trkpt lat="45.91056" lon="4.68582">
        <ele>361.34</ele>
        <time>2025-09-15T12:40:21.801Z</time>
      </trkpt>
      <trkpt lat="45.91073" lon="4.6859">
        <ele>361.41</ele>
        <time>2025-09-15T12:40:24.137Z</time>
      </trkpt>
      <trkpt lat="45.9109" lon="4.68598">
        <ele>361.32</ele>
        <time>2025-09-15T12:40:26.485Z</time>
      </trkpt>
      <trkpt lat="45.91092" lon="4.68599">
        <ele>360.97</ele>
        <time>2025-09-15T12:40:28.834Z</time>
      </trkpt>
      <trkpt lat="45.91106" lon="4.6861">
        <ele>360.41</ele>
        <time>2025-09-15T12:40:31.192Z</time>
      </trkpt>
      <trkpt lat="45.91106" lon="4.68611">
        <ele>359.62</ele>
        <time>2025-09-15T12:40:33.551Z</time>
      </trkpt>
      <trkpt lat="45.91105" lon="4.68619">
        <ele>358.54</ele>
        <time>2025-09-15T12:40:35.913Z</time>
      </trkpt>
      <trkpt lat="45.911" lon="4.68635">
        <ele>357.12</ele>
        <time>2025-09-15T12:40:38.283Z</time>
      </trkpt>
      <trkpt lat="45.91099" lon="4.68638">
        <ele>355.71</ele>
        <time>2025-09-15T12:40:40.655Z</time>
      </trkpt>
      <trkpt lat="45.91088" lon="4.68655">
        <ele>353.92</ele>
        <time>2025-09-15T12:40:43.036Z</time>
      </trkpt>
      <trkpt lat="45.91082" lon="4.68659">
        <ele>352.13</ele>
        <time>2025-09-15T12:40:45.422Z</time>
      </trkpt>
      <trkpt lat="45.91081" lon="4.68662">
        <ele>350.24</ele>
        <time>2025-09-15T12:40:47.809Z</time>
      </trkpt>
      <trkpt lat="45.91081" lon="4.68668">
        <ele>348.19</ele>
        <time>2025-09-15T12:40:50.198Z</time>
      </trkpt>
      <trkpt lat="45.91077" lon="4.68676">
        <ele>346</ele>
        <time>2025-09-15T12:40:52.591Z</time>
      </trkpt>
      <trkpt lat="45.91072" lon="4.68688">
        <ele>343.67</ele>
        <time>2025-09-15T12:40:54.990Z</time>
      </trkpt>
      <trkpt lat="45.91067" lon="4.68705">
        <ele>341.22</ele>
        <time>2025-09-15T12:40:57.397Z</time>
      </trkpt>
      <trkpt lat="45.9106" lon="4.68729">
        <ele>338.73</ele>
        <time>2025-09-15T12:40:59.815Z</time>
      </trkpt>
      <trkpt lat="45.91057" lon="4.68735">
        <ele>336.44</ele>
        <time>2025-09-15T12:41:02.236Z</time>
      </trkpt>
      <trkpt lat="45.91047" lon="4.6876">
        <ele>333.95</ele>
        <time>2025-09-15T12:41:04.670Z</time>
      </trkpt>
      <trkpt lat="45.91044" lon="4.68769">
        <ele>331.75</ele>
        <time>2025-09-15T12:41:07.108Z</time>
      </trkpt>
      <trkpt lat="45.91039" lon="4.68785">
        <ele>329.56</ele>
        <time>2025-09-15T12:41:09.553Z</time>
      </trkpt>
      <trkpt lat="45.91035" lon="4.68797">
        <ele>327.61</ele>
        <time>2025-09-15T12:41:12.004Z</time>
      </trkpt>
      <trkpt lat="45.91029" lon="4.68809">
        <ele>325.79</ele>
        <time>2025-09-15T12:41:14.462Z</time>
      </trkpt>
      <trkpt lat="45.91025" lon="4.68812">
        <ele>324.24</ele>
        <time>2025-09-15T12:41:16.922Z</time>
      </trkpt>
      <trkpt lat="45.91025" lon="4.68812">
        <ele>322.9</ele>
        <time>2025-09-15T12:41:19.382Z</time>
      </trkpt>
      <trkpt lat="45.91031" lon="4.68819">
        <ele>321.7</ele>
        <time>2025-09-15T12:41:21.847Z</time>
      </trkpt>
      <trkpt lat="45.91043" lon="4.68832">
        <ele>320.61</ele>
        <time>2025-09-15T12:41:24.321Z</time>
      </trkpt>
      <trkpt lat="45.91051" lon="4.68838">
        <ele>319.74</ele>
        <time>2025-09-15T12:41:26.800Z</time>
      </trkpt>
      <trkpt lat="45.91057" lon="4.68842">
        <ele>319</ele>
        <time>2025-09-15T12:41:29.284Z</time>
      </trkpt>
      <trkpt lat="45.91061" lon="4.68844">
        <ele>318.37</ele>
        <time>2025-09-15T12:41:31.770Z</time>
      </trkpt>
      <trkpt lat="45.91063" lon="4.68846">
        <ele>317.8</ele>
        <time>2025-09-15T12:41:34.258Z</time>
      </trkpt>
      <trkpt lat="45.91071" lon="4.68851">
        <ele>317.31</ele>
        <time>2025-09-15T12:41:36.751Z</time>
      </trkpt>
      <trkpt lat="45.91073" lon="4.68855">
        <ele>316.83</ele>
        <time>2025-09-15T12:41:39.246Z</time>
      </trkpt>
      <trkpt lat="45.91073" lon="4.68857">
        <ele>316.36</ele>
        <time>2025-09-15T12:41:41.742Z</time>
      </trkpt>
      <trkpt lat="45.91068" lon="4.68876">
        <ele>315.75</ele>
        <time>2025-09-15T12:41:44.247Z</time>
      </trkpt>
      <trkpt lat="45.9106" lon="4.68895">
        <ele>315.12</ele>
        <time>2025-09-15T12:41:46.761Z</time>
      </trkpt>
      <trkpt lat="45.91055" lon="4.68919">
        <ele>314.48</ele>
        <time>2025-09-15T12:41:49.286Z</time>
      </trkpt>
      <trkpt lat="45.91055" lon="4.68921">
        <ele>314.02</ele>
        <time>2025-09-15T12:41:51.812Z</time>
      </trkpt>
      <trkpt lat="45.91061" lon="4.68925">
        <ele>313.54</ele>
        <time>2025-09-15T12:41:54.341Z</time>
      </trkpt>
      <trkpt lat="45.91074" lon="4.6893">
        <ele>313.04</ele>
        <time>2025-09-15T12:41:56.879Z</time>
      </trkpt>
      <trkpt lat="45.9108" lon="4.68932">
        <ele>312.48</ele>
        <time>2025-09-15T12:41:59.421Z</time>
      </trkpt>
      <trkpt lat="45.91094" lon="4.68938">
        <ele>311.85</ele>
        <time>2025-09-15T12:42:01.972Z</time>
      </trkpt>
      <trkpt lat="45.91112" lon="4.68946">
        <ele>311.18</ele>
        <time>2025-09-15T12:42:04.534Z</time>
      </trkpt>
      <trkpt lat="45.91116" lon="4.68948">
        <ele>310.42</ele>
        <time>2025-09-15T12:42:07.099Z</time>
      </trkpt>
      <trkpt lat="45.91134" lon="4.68952">
        <ele>309.66</ele>
        <time>2025-09-15T12:42:09.675Z</time>
      </trkpt>
      <trkpt lat="45.91136" lon="4.68953">
        <ele>308.72</ele>
        <time>2025-09-15T12:42:12.252Z</time>
      </trkpt>
      <trkpt lat="45.91146" lon="4.68963">
        <ele>307.69</ele>
        <time>2025-09-15T12:42:14.837Z</time>
      </trkpt>
      <trkpt lat="45.91146" lon="4.68978">
        <ele>306.44</ele>
        <time>2025-09-15T12:42:17.428Z</time>
      </trkpt>
      <trkpt lat="45.91144" lon="4.68999">
        <ele>304.97</ele>
        <time>2025-09-15T12:42:20.028Z</time>
      </trkpt>
      <trkpt lat="45.91142" lon="4.69027">
        <ele>303.38</ele>
        <time>2025-09-15T12:42:22.640Z</time>
      </trkpt>
      <trkpt lat="45.9114" lon="4.6905">
        <ele>301.82</ele>
        <time>2025-09-15T12:42:25.262Z</time>
      </trkpt>
      <trkpt lat="45.91137" lon="4.69078">
        <ele>300.15</ele>
        <time>2025-09-15T12:42:27.896Z</time>
      </trkpt>
      <trkpt lat="45.91137" lon="4.69081">
        <ele>298.76</ele>
        <time>2025-09-15T12:42:30.532Z</time>
      </trkpt>
      <trkpt lat="45.91136" lon="4.69098">
        <ele>297.29</ele>
        <time>2025-09-15T12:42:33.175Z</time>
      </trkpt>
      <trkpt lat="45.91135" lon="4.69106">
        <ele>295.95</ele>
        <time>2025-09-15T12:42:35.821Z</time>
      </trkpt>
      <trkpt lat="45.91132" lon="4.69131">
        <ele>294.58</ele>
        <time>2025-09-15T12:42:38.478Z</time>
      </trkpt>
      <trkpt lat="45.9113" lon="4.69142">
        <ele>293.4</ele>
        <time>2025-09-15T12:42:41.140Z</time>
      </trkpt>
      <trkpt lat="45.9113" lon="4.69144">
        <ele>292.37</ele>
        <time>2025-09-15T12:42:43.803Z</time>
      </trkpt>
      <trkpt lat="45.91129" lon="4.69157">
        <ele>291.39</ele>
        <time>2025-09-15T12:42:46.472Z</time>
      </trkpt>
      <trkpt lat="45.91129" lon="4.69162">
        <ele>290.56</ele>
        <time>2025-09-15T12:42:49.143Z</time>
      </trkpt>
      <trkpt lat="45.9113" lon="4.69162">
        <ele>289.88</ele>
        <time>2025-09-15T12:42:51.814Z</time>
      </trkpt>
      <trkpt lat="45.9113" lon="4.69163">
        <ele>289.3</ele>
        <time>2025-09-15T12:42:54.485Z</time>
      </trkpt>
      <trkpt lat="45.9113" lon="4.69163">
        <ele>288.84</ele>
        <time>2025-09-15T12:42:57.156Z</time>
      </trkpt>
      <trkpt lat="45.9113" lon="4.69163">
        <ele>288.48</ele>
        <time>2025-09-15T12:42:59.827Z</time>
      </trkpt>
      <trkpt lat="45.9113" lon="4.69164">
        <ele>288.22</ele>
        <time>2025-09-15T12:43:02.499Z</time>
      </trkpt>
      <trkpt lat="45.91129" lon="4.69164">
        <ele>288.05</ele>
        <time>2025-09-15T12:43:05.171Z</time>
      </trkpt>
      <trkpt lat="45.91129" lon="4.69164">
        <ele>287.96</ele>
        <time>2025-09-15T12:43:07.843Z</time>
      </trkpt>
      <trkpt lat="45.91129" lon="4.69164">
        <ele>287.95</ele>
        <time>2025-09-15T12:43:10.515Z</time>
      </trkpt>
      <trkpt lat="45.9113" lon="4.69164">
        <ele>288</ele>
        <time>2025-09-15T12:43:13.188Z</time>
      </trkpt>
      <trkpt lat="45.9113" lon="4.69163">
        <ele>288.11</ele>
        <time>2025-09-15T12:43:15.861Z</time>
      </trkpt>
      <trkpt lat="45.9113" lon="4.69164">
        <ele>288.27</ele>
        <time>2025-09-15T12:43:18.534Z</time>
      </trkpt>
      <trkpt lat="45.91135" lon="4.69163">
        <ele>288.48</ele>
        <time>2025-09-15T12:43:21.210Z</time>
      </trkpt>
      <trkpt lat="45.91135" lon="4.69164">
        <ele>288.7</ele>
        <time>2025-09-15T12:43:23.886Z</time>
      </trkpt>
      <trkpt lat="45.91135" lon="4.69163">
        <ele>288.95</ele>
        <time>2025-09-15T12:43:26.562Z</time>
      </trkpt>
      <trkpt lat="45.91135" lon="4.69163">
        <ele>289.21</ele>
        <time>2025-09-15T12:43:29.239Z</time>
      </trkpt>
      <trkpt lat="45.91139" lon="4.69163">
        <ele>289.5</ele>
        <time>2025-09-15T12:43:31.918Z</time>
      </trkpt>
      <trkpt lat="45.91152" lon="4.69159">
        <ele>289.82</ele>
        <time>2025-09-15T12:43:34.605Z</time>
      </trkpt>
      <trkpt lat="45.91156" lon="4.69158">
        <ele>290.09</ele>
        <time>2025-09-15T12:43:37.295Z</time>
      </trkpt>
      <trkpt lat="45.9116" lon="4.69156">
        <ele>290.36</ele>
        <time>2025-09-15T12:43:39.987Z</time>
      </trkpt>
      <trkpt lat="45.91163" lon="4.69155">
        <ele>290.61</ele>
        <time>2025-09-15T12:43:42.681Z</time>
      </trkpt>
      <trkpt lat="45.91169" lon="4.69153">
        <ele>290.84</ele>
        <time>2025-09-15T12:43:45.379Z</time>
      </trkpt>
      <trkpt lat="45.91177" lon="4.69151">
        <ele>291.05</ele>
        <time>2025-09-15T12:43:48.082Z</time>
      </trkpt>
      <trkpt lat="45.91183" lon="4.69152">
        <ele>291.24</ele>
        <time>2025-09-15T12:43:50.789Z</time>
      </trkpt>
      <trkpt lat="45.91188" lon="4.69152">
        <ele>291.39</ele>
        <time>2025-09-15T12:43:53.498Z</time>
      </trkpt>
      <trkpt lat="45.91207" lon="4.6916">
        <ele>291.5</ele>
        <time>2025-09-15T12:43:56.219Z</time>
      </trkpt>
      <trkpt lat="45.91225" lon="4.69167">
        <ele>291.58</ele>
        <time>2025-09-15T12:43:58.952Z</time>
      </trkpt>
      <trkpt lat="45.91234" lon="4.6917">
        <ele>291.65</ele>
        <time>2025-09-15T12:44:01.691Z</time>
      </trkpt>
      <trkpt lat="45.91242" lon="4.69173">
        <ele>291.7</ele>
        <time>2025-09-15T12:44:04.435Z</time>
      </trkpt>
      <trkpt lat="45.91245" lon="4.69174">
        <ele>291.72</ele>
        <time>2025-09-15T12:44:07.181Z</time>
      </trkpt>
      <trkpt lat="45.91257" lon="4.69178">
        <ele>291.72</ele>
        <time>2025-09-15T12:44:09.934Z</time>
      </trkpt>
      <trkpt lat="45.91275" lon="4.69184">
        <ele>291.68</ele>
        <time>2025-09-15T12:44:12.699Z</time>
      </trkpt>
      <trkpt lat="45.91285" lon="4.69185">
        <ele>291.67</ele>
        <time>2025-09-15T12:44:15.469Z</time>
      </trkpt>
      <trkpt lat="45.91305" lon="4.69188">
        <ele>291.64</ele>
        <time>2025-09-15T12:44:18.252Z</time>
      </trkpt>
      <trkpt lat="45.91307" lon="4.69189">
        <ele>291.58</ele>
        <time>2025-09-15T12:44:21.036Z</time>
      </trkpt>
      <trkpt lat="45.91327" lon="4.69192">
        <ele>291.54</ele>
        <time>2025-09-15T12:44:23.832Z</time>
      </trkpt>
      <trkpt lat="45.91329" lon="4.69193">
        <ele>291.44</ele>
        <time>2025-09-15T12:44:26.630Z</time>
      </trkpt>
      <trkpt lat="45.91338" lon="4.69196">
        <ele>291.31</ele>
        <time>2025-09-15T12:44:29.434Z</time>
      </trkpt>
      <trkpt lat="45.91343" lon="4.69198">
        <ele>291.16</ele>
        <time>2025-09-15T12:44:32.241Z</time>
      </trkpt>
      <trkpt lat="45.9135" lon="4.692">
        <ele>290.98</ele>
        <time>2025-09-15T12:44:35.052Z</time>
      </trkpt>
      <trkpt lat="45.91354" lon="4.69202">
        <ele>290.8</ele>
        <time>2025-09-15T12:44:37.866Z</time>
      </trkpt>
      <trkpt lat="45.91359" lon="4.69203">
        <ele>290.6</ele>
        <time>2025-09-15T12:44:40.683Z</time>
      </trkpt>
      <trkpt lat="45.91368" lon="4.69205">
        <ele>290.39</ele>
        <time>2025-09-15T12:44:43.505Z</time>
      </trkpt>
      <trkpt lat="45.91371" lon="4.69205">
        <ele>290.2</ele>
        <time>2025-09-15T12:44:46.329Z</time>
      </trkpt>
      <trkpt lat="45.91375" lon="4.69205">
        <ele>290.01</ele>
        <time>2025-09-15T12:44:49.156Z</time>
      </trkpt>
      <trkpt lat="45.91389" lon="4.69205">
        <ele>289.82</ele>
        <time>2025-09-15T12:44:51.991Z</time>
      </trkpt>
      <trkpt lat="45.91398" lon="4.69205">
        <ele>289.63</ele>
        <time>2025-09-15T12:44:54.831Z</time>
      </trkpt>
      <trkpt lat="45.91414" lon="4.69205">
        <ele>289.41</ele>
        <time>2025-09-15T12:44:57.681Z</time>
      </trkpt>
      <trkpt lat="45.91432" lon="4.69203">
        <ele>289.17</ele>
        <time>2025-09-15T12:45:00.542Z</time>
      </trkpt>
      <trkpt lat="45.91442" lon="4.69202">
        <ele>288.98</ele>
        <time>2025-09-15T12:45:03.409Z</time>
      </trkpt>
      <trkpt lat="45.91446" lon="4.69201">
        <ele>288.8</ele>
        <time>2025-09-15T12:45:06.279Z</time>
      </trkpt>
      <trkpt lat="45.9145" lon="4.69201">
        <ele>288.62</ele>
        <time>2025-09-15T12:45:09.151Z</time>
      </trkpt>
      <trkpt lat="45.9147" lon="4.692">
        <ele>288.45</ele>
        <time>2025-09-15T12:45:12.036Z</time>
      </trkpt>
      <trkpt lat="45.91488" lon="4.69203">
        <ele>288.26</ele>
        <time>2025-09-15T12:45:14.932Z</time>
      </trkpt>
      <trkpt lat="45.91493" lon="4.69203">
        <ele>288.1</ele>
        <time>2025-09-15T12:45:17.831Z</time>
      </trkpt>
      <trkpt lat="45.91511" lon="4.69208">
        <ele>287.92</ele>
        <time>2025-09-15T12:45:20.741Z</time>
      </trkpt>
      <trkpt lat="45.91514" lon="4.69208">
        <ele>287.79</ele>
        <time>2025-09-15T12:45:23.653Z</time>
      </trkpt>
      <trkpt lat="45.91526" lon="4.69211">
        <ele>287.69</ele>
        <time>2025-09-15T12:45:26.572Z</time>
      </trkpt>
      <trkpt lat="45.91538" lon="4.69214">
        <ele>287.61</ele>
        <time>2025-09-15T12:45:29.499Z</time>
      </trkpt>
      <trkpt lat="45.9155" lon="4.69218">
        <ele>287.55</ele>
        <time>2025-09-15T12:45:32.433Z</time>
      </trkpt>
      <trkpt lat="45.91556" lon="4.69224">
        <ele>287.44</ele>
        <time>2025-09-15T12:45:35.372Z</time>
      </trkpt>
      <trkpt lat="45.91563" lon="4.69248">
        <ele>287.23</ele>
        <time>2025-09-15T12:45:38.322Z</time>
      </trkpt>
      <trkpt lat="45.9157" lon="4.69273">
        <ele>287.09</ele>
        <time>2025-09-15T12:45:41.284Z</time>
      </trkpt>
      <trkpt lat="45.9158" lon="4.6929">
        <ele>287.07</ele>
        <time>2025-09-15T12:45:44.255Z</time>
      </trkpt>
      <trkpt lat="45.91598" lon="4.69298">
        <ele>287.16</ele>
        <time>2025-09-15T12:45:47.237Z</time>
      </trkpt>
      <trkpt lat="45.91602" lon="4.693">
        <ele>287.26</ele>
        <time>2025-09-15T12:45:50.222Z</time>
      </trkpt>
      <trkpt lat="45.91619" lon="4.69305">
        <ele>287.46</ele>
        <time>2025-09-15T12:45:53.217Z</time>
      </trkpt>
      <trkpt lat="45.91621" lon="4.69305">
        <ele>287.58</ele>
        <time>2025-09-15T12:45:56.214Z</time>
      </trkpt>
      <trkpt lat="45.9164" lon="4.69312">
        <ele>287.81</ele>
        <time>2025-09-15T12:45:59.223Z</time>
      </trkpt>
      <trkpt lat="45.91642" lon="4.69313">
        <ele>287.94</ele>
        <time>2025-09-15T12:46:02.233Z</time>
      </trkpt>
      <trkpt lat="45.9166" lon="4.69318">
        <ele>288.13</ele>
        <time>2025-09-15T12:46:05.254Z</time>
      </trkpt>
      <trkpt lat="45.91662" lon="4.69319">
        <ele>288.24</ele>
        <time>2025-09-15T12:46:08.276Z</time>
      </trkpt>
      <trkpt lat="45.91666" lon="4.69321">
        <ele>288.33</ele>
        <time>2025-09-15T12:46:11.301Z</time>
      </trkpt>
      <trkpt lat="45.9167" lon="4.69322">
        <ele>288.41</ele>
        <time>2025-09-15T12:46:14.329Z</time>
      </trkpt>
      <trkpt lat="45.91673" lon="4.69323">
        <ele>288.47</ele>
        <time>2025-09-15T12:46:17.358Z</time>
      </trkpt>
      <trkpt lat="45.9168" lon="4.69326">
        <ele>288.5</ele>
        <time>2025-09-15T12:46:20.392Z</time>
      </trkpt>
      <trkpt lat="45.91691" lon="4.6933">
        <ele>288.46</ele>
        <time>2025-09-15T12:46:23.433Z</time>
      </trkpt>
      <trkpt lat="45.91707" lon="4.69336">
        <ele>288.38</ele>
        <time>2025-09-15T12:46:26.484Z</time>
      </trkpt>
      <trkpt lat="45.91709" lon="4.69337">
        <ele>288.37</ele>
        <time>2025-09-15T12:46:29.537Z</time>
      </trkpt>
      <trkpt lat="45.91716" lon="4.69339">
        <ele>288.35</ele>
        <time>2025-09-15T12:46:32.594Z</time>
      </trkpt>
      <trkpt lat="45.91732" lon="4.69344">
        <ele>288.31</ele>
        <time>2025-09-15T12:46:35.661Z</time>
      </trkpt>
      <trkpt lat="45.91733" lon="4.69345">
        <ele>288.31</ele>
        <time>2025-09-15T12:46:38.729Z</time>
      </trkpt>
      <trkpt lat="45.91739" lon="4.69347">
        <ele>288.32</ele>
        <time>2025-09-15T12:46:41.800Z</time>
      </trkpt>
      <trkpt lat="45.91752" lon="4.69353">
        <ele>288.33</ele>
        <time>2025-09-15T12:46:44.880Z</time>
      </trkpt>
      <trkpt lat="45.9177" lon="4.69363">
        <ele>288.38</ele>
        <time>2025-09-15T12:46:47.972Z</time>
      </trkpt>
      <trkpt lat="45.91777" lon="4.69365">
        <ele>288.48</ele>
        <time>2025-09-15T12:46:51.068Z</time>
      </trkpt>
      <trkpt lat="45.91791" lon="4.69374">
        <ele>288.6</ele>
        <time>2025-09-15T12:46:54.173Z</time>
      </trkpt>
      <trkpt lat="45.91796" lon="4.69379">
        <ele>288.71</ele>
        <time>2025-09-15T12:46:57.282Z</time>
      </trkpt>
      <trkpt lat="45.91801" lon="4.69381">
        <ele>288.82</ele>
        <time>2025-09-15T12:47:00.394Z</time>
      </trkpt>
      <trkpt lat="45.91806" lon="4.69385">
        <ele>288.94</ele>
        <time>2025-09-15T12:47:03.510Z</time>
      </trkpt>
      <trkpt lat="45.91823" lon="4.69388">
        <ele>289.08</ele>
        <time>2025-09-15T12:47:06.636Z</time>
      </trkpt>
      <trkpt lat="45.91841" lon="4.69385">
        <ele>289.22</ele>
        <time>2025-09-15T12:47:09.773Z</time>
      </trkpt>
      <trkpt lat="45.91843" lon="4.69384">
        <ele>289.31</ele>
        <time>2025-09-15T12:47:12.911Z</time>
      </trkpt>
      <trkpt lat="45.91862" lon="4.6938">
        <ele>289.36</ele>
        <time>2025-09-15T12:47:16.061Z</time>
      </trkpt>
      <trkpt lat="45.91874" lon="4.69386">
        <ele>289.29</ele>
        <time>2025-09-15T12:47:19.219Z</time>
      </trkpt>
      <trkpt lat="45.9188" lon="4.69388">
        <ele>289.26</ele>
        <time>2025-09-15T12:47:22.380Z</time>
      </trkpt>
      <trkpt lat="45.91896" lon="4.69397">
        <ele>289.17</ele>
        <time>2025-09-15T12:47:25.552Z</time>
      </trkpt>
      <trkpt lat="45.91914" lon="4.69403">
        <ele>289.07</ele>
        <time>2025-09-15T12:47:28.735Z</time>
      </trkpt>
      <trkpt lat="45.91924" lon="4.69409">
        <ele>288.85</ele>
        <time>2025-09-15T12:47:31.925Z</time>
      </trkpt>
      <trkpt lat="45.91922" lon="4.69413">
        <ele>288.5</ele>
        <time>2025-09-15T12:47:35.117Z</time>
      </trkpt>
      <trkpt lat="45.91921" lon="4.69417">
        <ele>288.07</ele>
        <time>2025-09-15T12:47:38.311Z</time>
      </trkpt>
      <trkpt lat="45.91922" lon="4.69434">
        <ele>287.49</ele>
        <time>2025-09-15T12:47:41.512Z</time>
      </trkpt>
      <trkpt lat="45.91923" lon="4.69453">
        <ele>286.79</ele>
        <time>2025-09-15T12:47:44.721Z</time>
      </trkpt>
      <trkpt lat="45.91923" lon="4.69456">
        <ele>286.08</ele>
        <time>2025-09-15T12:47:47.931Z</time>
      </trkpt>
      <trkpt lat="45.91923" lon="4.69459">
        <ele>285.28</ele>
        <time>2025-09-15T12:47:51.143Z</time>
      </trkpt>
      <trkpt lat="45.91925" lon="4.69468">
        <ele>284.37</ele>
        <time>2025-09-15T12:47:54.359Z</time>
      </trkpt>
      <trkpt lat="45.91924" lon="4.69478">
        <ele>283.36</ele>
        <time>2025-09-15T12:47:57.579Z</time>
      </trkpt>
      <trkpt lat="45.91924" lon="4.69482">
        <ele>282.3</ele>
        <time>2025-09-15T12:48:00.801Z</time>
      </trkpt>
      <trkpt lat="45.91924" lon="4.6951">
        <ele>281.13</ele>
        <time>2025-09-15T12:48:04.035Z</time>
      </trkpt>
      <trkpt lat="45.91926" lon="4.69537">
        <ele>279.83</ele>
        <time>2025-09-15T12:48:07.280Z</time>
      </trkpt>
      <trkpt lat="45.9193" lon="4.69565">
        <ele>278.34</ele>
        <time>2025-09-15T12:48:10.537Z</time>
      </trkpt>
      <trkpt lat="45.91936" lon="4.69582">
        <ele>276.82</ele>
        <time>2025-09-15T12:48:13.803Z</time>
      </trkpt>
      <trkpt lat="45.91943" lon="4.69608">
        <ele>275.21</ele>
        <time>2025-09-15T12:48:17.081Z</time>
      </trkpt>
      <trkpt lat="45.91944" lon="4.69612">
        <ele>273.82</ele>
        <time>2025-09-15T12:48:20.360Z</time>
      </trkpt>
      <trkpt lat="45.91949" lon="4.69639">
        <ele>272.27</ele>
        <time>2025-09-15T12:48:23.651Z</time>
      </trkpt>
      <trkpt lat="45.91952" lon="4.69649">
        <ele>270.91</ele>
        <time>2025-09-15T12:48:26.947Z</time>
      </trkpt>
      <trkpt lat="45.91955" lon="4.69666">
        <ele>269.58</ele>
        <time>2025-09-15T12:48:30.250Z</time>
      </trkpt>
      <trkpt lat="45.91958" lon="4.69682">
        <ele>268.31</ele>
        <time>2025-09-15T12:48:33.561Z</time>
      </trkpt>
      <trkpt lat="45.9196" lon="4.6969">
        <ele>267.13</ele>
        <time>2025-09-15T12:48:36.875Z</time>
      </trkpt>
      <trkpt lat="45.9196" lon="4.69697">
        <ele>266.03</ele>
        <time>2025-09-15T12:48:40.192Z</time>
      </trkpt>
      <trkpt lat="45.91956" lon="4.69701">
        <ele>265</ele>
        <time>2025-09-15T12:48:43.512Z</time>
      </trkpt>
      <trkpt lat="45.9195" lon="4.69703">
        <ele>264.03</ele>
        <time>2025-09-15T12:48:46.836Z</time>
      </trkpt>
      <trkpt lat="45.91934" lon="4.69708">
        <ele>263.08</ele>
        <time>2025-09-15T12:48:50.170Z</time>
      </trkpt>
      <trkpt lat="45.91924" lon="4.69711">
        <ele>262.23</ele>
        <time>2025-09-15T12:48:53.510Z</time>
      </trkpt>
      <trkpt lat="45.91917" lon="4.69714">
        <ele>261.46</ele>
        <time>2025-09-15T12:48:56.855Z</time>
      </trkpt>
      <trkpt lat="45.91915" lon="4.69715">
        <ele>260.76</ele>
        <time>2025-09-15T12:49:00.201Z</time>
      </trkpt>
      <trkpt lat="45.91899" lon="4.69717">
        <ele>260.12</ele>
        <time>2025-09-15T12:49:03.557Z</time>
      </trkpt>
      <trkpt lat="45.9188" lon="4.69715">
        <ele>259.53</ele>
        <time>2025-09-15T12:49:06.925Z</time>
      </trkpt>
      <trkpt lat="45.91878" lon="4.69716">
        <ele>258.98</ele>
        <time>2025-09-15T12:49:10.294Z</time>
      </trkpt>
      <trkpt lat="45.91874" lon="4.69719">
        <ele>258.44</ele>
        <time>2025-09-15T12:49:13.665Z</time>
      </trkpt>
      <trkpt lat="45.91873" lon="4.69722">
        <ele>257.94</ele>
        <time>2025-09-15T12:49:17.038Z</time>
      </trkpt>
      <trkpt lat="45.91873" lon="4.69725">
        <ele>257.46</ele>
        <time>2025-09-15T12:49:20.412Z</time>
      </trkpt>
      <trkpt lat="45.91872" lon="4.69742">
        <ele>256.98</ele>
        <time>2025-09-15T12:49:23.793Z</time>
      </trkpt>
      <trkpt lat="45.91871" lon="4.69754">
        <ele>256.55</ele>
        <time>2025-09-15T12:49:27.180Z</time>
      </trkpt>
      <trkpt lat="45.9187" lon="4.6977">
        <ele>256.1</ele>
        <time>2025-09-15T12:49:30.573Z</time>
      </trkpt>
      <trkpt lat="45.91869" lon="4.69779">
        <ele>255.72</ele>
        <time>2025-09-15T12:49:33.970Z</time>
      </trkpt>
      <trkpt lat="45.91866" lon="4.69805">
        <ele>255.37</ele>
        <time>2025-09-15T12:49:37.379Z</time>
      </trkpt>
      <trkpt lat="45.91866" lon="4.69808">
        <ele>255.1</ele>
        <time>2025-09-15T12:49:40.789Z</time>
      </trkpt>
      <trkpt lat="45.91861" lon="4.69825">
        <ele>254.8</ele>
        <time>2025-09-15T12:49:44.207Z</time>
      </trkpt>
      <trkpt lat="45.9185" lon="4.69826">
        <ele>254.63</ele>
        <time>2025-09-15T12:49:47.632Z</time>
      </trkpt>
      <trkpt lat="45.91831" lon="4.69822">
        <ele>254.46</ele>
        <time>2025-09-15T12:49:51.068Z</time>
      </trkpt>
      <trkpt lat="45.9182" lon="4.69819">
        <ele>254.36</ele>
        <time>2025-09-15T12:49:54.512Z</time>
      </trkpt>
      <trkpt lat="45.91817" lon="4.69818">
        <ele>254.34</ele>
        <time>2025-09-15T12:49:57.957Z</time>
      </trkpt>
      <trkpt lat="45.91809" lon="4.69814">
        <ele>254.34</ele>
        <time>2025-09-15T12:50:01.408Z</time>
      </trkpt>
      <trkpt lat="45.91794" lon="4.69804">
        <ele>254.37</ele>
        <time>2025-09-15T12:50:04.869Z</time>
      </trkpt>
      <trkpt lat="45.9179" lon="4.698">
        <ele>254.47</ele>
        <time>2025-09-15T12:50:08.333Z</time>
      </trkpt>
      <trkpt lat="45.91778" lon="4.69782">
        <ele>254.68</ele>
        <time>2025-09-15T12:50:11.807Z</time>
      </trkpt>
      <trkpt lat="45.91777" lon="4.69779">
        <ele>254.88</ele>
        <time>2025-09-15T12:50:15.283Z</time>
      </trkpt>
      <trkpt lat="45.91765" lon="4.69762">
        <ele>255.16</ele>
        <time>2025-09-15T12:50:18.769Z</time>
      </trkpt>
      <trkpt lat="45.91751" lon="4.69746">
        <ele>255.43</ele>
        <time>2025-09-15T12:50:22.266Z</time>
      </trkpt>
      <trkpt lat="45.91734" lon="4.69735">
        <ele>255.68</ele>
        <time>2025-09-15T12:50:25.774Z</time>
      </trkpt>
      <trkpt lat="45.91732" lon="4.69734">
        <ele>255.82</ele>
        <time>2025-09-15T12:50:29.284Z</time>
      </trkpt>
      <trkpt lat="45.91721" lon="4.69728">
        <ele>255.91</ele>
        <time>2025-09-15T12:50:32.801Z</time>
      </trkpt>
      <trkpt lat="45.91712" lon="4.69726">
        <ele>255.95</ele>
        <time>2025-09-15T12:50:36.323Z</time>
      </trkpt>
      <trkpt lat="45.917" lon="4.69733">
        <ele>255.92</ele>
        <time>2025-09-15T12:50:39.853Z</time>
      </trkpt>
      <trkpt lat="45.91686" lon="4.69749">
        <ele>255.82</ele>
        <time>2025-09-15T12:50:43.394Z</time>
      </trkpt>
      <trkpt lat="45.91671" lon="4.69764">
        <ele>255.62</ele>
        <time>2025-09-15T12:50:46.947Z</time>
      </trkpt>
      <trkpt lat="45.91667" lon="4.69768">
        <ele>255.41</ele>
        <time>2025-09-15T12:50:50.503Z</time>
      </trkpt>
      <trkpt lat="45.91654" lon="4.69784">
        <ele>255.09</ele>
        <time>2025-09-15T12:50:54.069Z</time>
      </trkpt>
      <trkpt lat="45.9164" lon="4.69798">
        <ele>254.73</ele>
        <time>2025-09-15T12:50:57.646Z</time>
      </trkpt>
      <trkpt lat="45.91626" lon="4.69814">
        <ele>254.29</ele>
        <time>2025-09-15T12:51:01.234Z</time>
      </trkpt>
      <trkpt lat="45.91615" lon="4.69826">
        <ele>253.69</ele>
        <time>2025-09-15T12:51:04.830Z</time>
      </trkpt>
      <trkpt lat="45.91599" lon="4.69845">
        <ele>252.98</ele>
        <time>2025-09-15T12:51:08.439Z</time>
      </trkpt>
      <trkpt lat="45.91596" lon="4.69849">
        <ele>252.28</ele>
        <time>2025-09-15T12:51:12.051Z</time>
      </trkpt>
      <trkpt lat="45.91587" lon="4.6987">
        <ele>251.4</ele>
        <time>2025-09-15T12:51:15.673Z</time>
      </trkpt>
      <trkpt lat="45.91589" lon="4.69893">
        <ele>250.56</ele>
        <time>2025-09-15T12:51:19.305Z</time>
      </trkpt>
      <trkpt lat="45.91598" lon="4.69917">
        <ele>249.72</ele>
        <time>2025-09-15T12:51:22.948Z</time>
      </trkpt>
      <trkpt lat="45.91599" lon="4.6992">
        <ele>248.79</ele>
        <time>2025-09-15T12:51:26.593Z</time>
      </trkpt>
      <trkpt lat="45.91609" lon="4.69936">
        <ele>247.72</ele>
        <time>2025-09-15T12:51:30.247Z</time>
      </trkpt>
      <trkpt lat="45.91611" lon="4.69941">
        <ele>246.61</ele>
        <time>2025-09-15T12:51:33.904Z</time>
      </trkpt>
      <trkpt lat="45.91622" lon="4.69961">
        <ele>245.34</ele>
        <time>2025-09-15T12:51:37.571Z</time>
      </trkpt>
      <trkpt lat="45.91634" lon="4.69982">
        <ele>244</ele>
        <time>2025-09-15T12:51:41.250Z</time>
      </trkpt>
      <trkpt lat="45.91636" lon="4.69985">
        <ele>242.74</ele>
        <time>2025-09-15T12:51:44.931Z</time>
      </trkpt>
      <trkpt lat="45.91646" lon="4.70008">
        <ele>241.35</ele>
        <time>2025-09-15T12:51:48.623Z</time>
      </trkpt>
      <trkpt lat="45.91655" lon="4.7003">
        <ele>239.79</ele>
        <time>2025-09-15T12:51:52.326Z</time>
      </trkpt>
      <trkpt lat="45.9166" lon="4.70042">
        <ele>238.29</ele>
        <time>2025-09-15T12:51:56.035Z</time>
      </trkpt>
      <trkpt lat="45.91663" lon="4.70048">
        <ele>236.84</ele>
        <time>2025-09-15T12:51:59.748Z</time>
      </trkpt>
      <trkpt lat="45.91667" lon="4.70057">
        <ele>235.32</ele>
        <time>2025-09-15T12:52:03.465Z</time>
      </trkpt>
      <trkpt lat="45.91673" lon="4.70073">
        <ele>233.78</ele>
        <time>2025-09-15T12:52:07.190Z</time>
      </trkpt>
      <trkpt lat="45.91684" lon="4.7009">
        <ele>232.24</ele>
        <time>2025-09-15T12:52:10.925Z</time>
      </trkpt>
      <trkpt lat="45.91695" lon="4.70108">
        <ele>230.7</ele>
        <time>2025-09-15T12:52:14.670Z</time>
      </trkpt>
      <trkpt lat="45.91701" lon="4.70118">
        <ele>229.23</ele>
        <time>2025-09-15T12:52:18.421Z</time>
      </trkpt>
      <trkpt lat="45.91705" lon="4.70127">
        <ele>227.78</ele>
        <time>2025-09-15T12:52:22.176Z</time>
      </trkpt>
      <trkpt lat="45.91715" lon="4.70142">
        <ele>226.33</ele>
        <time>2025-09-15T12:52:25.940Z</time>
      </trkpt>
      <trkpt lat="45.91723" lon="4.7016">
        <ele>224.83</ele>
        <time>2025-09-15T12:52:29.713Z</time>
      </trkpt>
      <trkpt lat="45.91735" lon="4.70183">
        <ele>223.36</ele>
        <time>2025-09-15T12:52:33.498Z</time>
      </trkpt>
      <trkpt lat="45.91742" lon="4.70197">
        <ele>221.98</ele>
        <time>2025-09-15T12:52:37.291Z</time>
      </trkpt>
      <trkpt lat="45.91744" lon="4.70204">
        <ele>220.62</ele>
        <time>2025-09-15T12:52:41.087Z</time>
      </trkpt>
      <trkpt lat="45.9175" lon="4.70231">
        <ele>219.18</ele>
        <time>2025-09-15T12:52:44.895Z</time>
      </trkpt>
      <trkpt lat="45.91752" lon="4.70252">
        <ele>217.81</ele>
        <time>2025-09-15T12:52:48.712Z</time>
      </trkpt>
      <trkpt lat="45.91751" lon="4.70259">
        <ele>216.44</ele>
        <time>2025-09-15T12:52:52.532Z</time>
      </trkpt>
      <trkpt lat="45.91751" lon="4.70262">
        <ele>215.07</ele>
        <time>2025-09-15T12:52:56.353Z</time>
      </trkpt>
      <trkpt lat="45.9175" lon="4.70269">
        <ele>213.67</ele>
        <time>2025-09-15T12:53:00.177Z</time>
      </trkpt>
      <trkpt lat="45.91749" lon="4.70298">
        <ele>212.1</ele>
        <time>2025-09-15T12:53:04.014Z</time>
      </trkpt>
      <trkpt lat="45.91748" lon="4.70316">
        <ele>210.58</ele>
        <time>2025-09-15T12:53:07.858Z</time>
      </trkpt>
      <trkpt lat="45.91747" lon="4.70319">
        <ele>209.25</ele>
        <time>2025-09-15T12:53:11.704Z</time>
      </trkpt>
      <trkpt lat="45.91745" lon="4.70345">
        <ele>207.71</ele>
        <time>2025-09-15T12:53:15.561Z</time>
      </trkpt>
      <trkpt lat="45.91744" lon="4.70352">
        <ele>206.45</ele>
        <time>2025-09-15T12:53:19.421Z</time>
      </trkpt>
      <trkpt lat="45.9174" lon="4.70378">
        <ele>205.13</ele>
        <time>2025-09-15T12:53:23.293Z</time>
      </trkpt>
      <trkpt lat="45.91737" lon="4.70402">
        <ele>203.89</ele>
        <time>2025-09-15T12:53:27.175Z</time>
      </trkpt>
      <trkpt lat="45.91733" lon="4.7043">
        <ele>202.83</ele>
        <time>2025-09-15T12:53:31.069Z</time>
      </trkpt>
      <trkpt lat="45.91732" lon="4.70436">
        <ele>201.95</ele>
        <time>2025-09-15T12:53:34.966Z</time>
      </trkpt>
      <trkpt lat="45.91731" lon="4.70442">
        <ele>201.15</ele>
        <time>2025-09-15T12:53:38.865Z</time>
      </trkpt>
      <trkpt lat="45.91731" lon="4.70452">
        <ele>200.43</ele>
        <time>2025-09-15T12:53:42.768Z</time>
      </trkpt>
      <trkpt lat="45.9173" lon="4.70459">
        <ele>199.84</ele>
        <time>2025-09-15T12:53:46.674Z</time>
      </trkpt>
      <trkpt lat="45.91728" lon="4.70473">
        <ele>199.31</ele>
        <time>2025-09-15T12:53:50.587Z</time>
      </trkpt>
      <trkpt lat="45.91727" lon="4.70476">
        <ele>198.82</ele>
        <time>2025-09-15T12:53:54.501Z</time>
      </trkpt>
      <trkpt lat="45.91727" lon="4.70479">
        <ele>198.38</ele>
        <time>2025-09-15T12:53:58.416Z</time>
      </trkpt>
      <trkpt lat="45.91723" lon="4.70506">
        <ele>197.93</ele>
        <time>2025-09-15T12:54:02.343Z</time>
      </trkpt>
      <trkpt lat="45.91722" lon="4.70516">
        <ele>197.56</ele>
        <time>2025-09-15T12:54:06.275Z</time>
      </trkpt>
      <trkpt lat="45.9172" lon="4.70543">
        <ele>197.18</ele>
        <time>2025-09-15T12:54:10.218Z</time>
      </trkpt>
      <trkpt lat="45.9172" lon="4.70546">
        <ele>196.82</ele>
        <time>2025-09-15T12:54:14.162Z</time>
      </trkpt>
      <trkpt lat="45.91712" lon="4.70567">
        <ele>196.4</ele>
        <time>2025-09-15T12:54:18.117Z</time>
      </trkpt>
      <trkpt lat="45.91705" lon="4.70589">
        <ele>196.05</ele>
        <time>2025-09-15T12:54:22.082Z</time>
      </trkpt>
      <trkpt lat="45.91698" lon="4.70614">
        <ele>195.62</ele>
        <time>2025-09-15T12:54:26.058Z</time>
      </trkpt>
      <trkpt lat="45.91691" lon="4.70634">
        <ele>195.09</ele>
        <time>2025-09-15T12:54:30.044Z</time>
      </trkpt>
      <trkpt lat="45.91686" lon="4.70645">
        <ele>194.56</ele>
        <time>2025-09-15T12:54:34.035Z</time>
      </trkpt>
      <trkpt lat="45.91679" lon="4.70667">
        <ele>194.04</ele>
        <time>2025-09-15T12:54:38.037Z</time>
      </trkpt>
      <trkpt lat="45.91671" lon="4.70692">
        <ele>193.55</ele>
        <time>2025-09-15T12:54:42.051Z</time>
      </trkpt>
      <trkpt lat="45.9167" lon="4.70695">
        <ele>193.23</ele>
        <time>2025-09-15T12:54:46.066Z</time>
      </trkpt>
      <trkpt lat="45.91669" lon="4.70698">
        <ele>192.9</ele>
        <time>2025-09-15T12:54:50.083Z</time>
      </trkpt>
      <trkpt lat="45.91661" lon="4.7072">
        <ele>192.51</ele>
        <time>2025-09-15T12:54:54.110Z</time>
      </trkpt>
      <trkpt lat="45.91656" lon="4.70732">
        <ele>192.18</ele>
        <time>2025-09-15T12:54:58.143Z</time>
      </trkpt>
      <trkpt lat="45.91655" lon="4.70735">
        <ele>191.81</ele>
        <time>2025-09-15T12:55:02.178Z</time>
      </trkpt>
      <trkpt lat="45.91647" lon="4.70746">
        <ele>191.37</ele>
        <time>2025-09-15T12:55:06.219Z</time>
      </trkpt>
      <trkpt lat="45.91644" lon="4.70751">
        <ele>190.94</ele>
        <time>2025-09-15T12:55:10.263Z</time>
      </trkpt>
      <trkpt lat="45.91631" lon="4.70768">
        <ele>190.42</ele>
        <time>2025-09-15T12:55:14.318Z</time>
      </trkpt>
      <trkpt lat="45.91621" lon="4.7078">
        <ele>189.81</ele>
        <time>2025-09-15T12:55:18.381Z</time>
      </trkpt>
      <trkpt lat="45.91612" lon="4.70791">
        <ele>189.18</ele>
        <time>2025-09-15T12:55:22.451Z</time>
      </trkpt>
      <trkpt lat="45.91604" lon="4.70802">
        <ele>188.52</ele>
        <time>2025-09-15T12:55:26.528Z</time>
      </trkpt>
      <trkpt lat="45.9159" lon="4.70817">
        <ele>187.91</ele>
        <time>2025-09-15T12:55:30.616Z</time>
      </trkpt>
      <trkpt lat="45.9158" lon="4.70825">
        <ele>187.61</ele>
        <time>2025-09-15T12:55:34.710Z</time>
      </trkpt>
    </trkseg>
  </trk>
</gpx>